<?xml version="1.0" encoding="UTF-8" standalone="no" ?>
<gpx xmlns="http://www.topografix.com/GPX/1/1" xmlns:xsi="http://www.w3.org/2001/XMLSchema-instance" xsi:schemaLocation="http://www.topografix.com/GPX/1/1 http://www.topografix.com/GPX/1/1/gpx.xsd" version="1.1" creator="VisuGPX - https://www.visugpx.com">
  <metadata>
    <name>2021-10-18 14:01</name>
    <desc><![CDATA[File with points/tracks from Locus Map/4.4.3]]></desc>
  </metadata>
  <trk>
    <name><![CDATA[2021-10-18 14:01]]></name>
    <extensions>
      <line xmlns="http://www.topografix.com/GPX/gpx_style/0/2">
        <color>0000FF</color>
        <opacity>0.59</opacity>
        <width>6.0</width>
      </line>
    </extensions>
    <trkseg>
      <trkpt lat="49.46372" lon="3.69707">
        <ele>87.58</ele>
        <time>2021-10-18T12:01:56.999Z</time>
      </trkpt>
      <trkpt lat="49.46371" lon="3.69705">
        <ele>86.31</ele>
        <time>2021-10-18T12:02:16.999Z</time>
      </trkpt>
      <trkpt lat="49.4637" lon="3.69699">
        <ele>86.05</ele>
        <time>2021-10-18T12:02:26.999Z</time>
      </trkpt>
      <trkpt lat="49.46371" lon="3.697">
        <ele>86.08</ele>
        <time>2021-10-18T12:02:38.999Z</time>
      </trkpt>
      <trkpt lat="49.4637" lon="3.69699">
        <ele>86.86</ele>
        <time>2021-10-18T12:03:21.999Z</time>
      </trkpt>
      <trkpt lat="49.46364" lon="3.69697">
        <ele>86.61</ele>
        <time>2021-10-18T12:03:31.999Z</time>
      </trkpt>
      <trkpt lat="49.46361" lon="3.69691">
        <ele>86.41</ele>
        <time>2021-10-18T12:03:41.260Z</time>
      </trkpt>
      <trkpt lat="49.46364" lon="3.69681">
        <ele>86.54</ele>
        <time>2021-10-18T12:03:50.758Z</time>
      </trkpt>
      <trkpt lat="49.46368" lon="3.69669">
        <ele>86.38</ele>
        <time>2021-10-18T12:04:00.417Z</time>
      </trkpt>
      <trkpt lat="49.46369" lon="3.69666">
        <ele>86.49</ele>
        <time>2021-10-18T12:04:09.999Z</time>
      </trkpt>
      <trkpt lat="49.46369" lon="3.69668">
        <ele>86.7</ele>
        <time>2021-10-18T12:04:21.600Z</time>
      </trkpt>
      <trkpt lat="49.46368" lon="3.69675">
        <ele>86.7</ele>
        <time>2021-10-18T12:04:30.703Z</time>
      </trkpt>
      <trkpt lat="49.4637" lon="3.69684">
        <ele>86.65</ele>
        <time>2021-10-18T12:04:39.999Z</time>
      </trkpt>
      <trkpt lat="49.4637" lon="3.69689">
        <ele>86.84</ele>
        <time>2021-10-18T12:04:49.078Z</time>
      </trkpt>
      <trkpt lat="49.46367" lon="3.69692">
        <ele>86.33</ele>
        <time>2021-10-18T12:04:58.999Z</time>
      </trkpt>
      <trkpt lat="49.46366" lon="3.69691">
        <ele>86.21</ele>
        <time>2021-10-18T12:05:09.999Z</time>
      </trkpt>
      <trkpt lat="49.46367" lon="3.69692">
        <ele>86.55</ele>
        <time>2021-10-18T12:05:37.999Z</time>
      </trkpt>
      <trkpt lat="49.46367" lon="3.69692">
        <ele>87.05</ele>
        <time>2021-10-18T12:05:49.379Z</time>
      </trkpt>
      <trkpt lat="49.46366" lon="3.69693">
        <ele>86.79</ele>
        <time>2021-10-18T12:05:59.521Z</time>
      </trkpt>
      <trkpt lat="49.46372" lon="3.69694">
        <ele>86.74</ele>
        <time>2021-10-18T12:06:10.276Z</time>
      </trkpt>
      <trkpt lat="49.46372" lon="3.69699">
        <ele>86.73</ele>
        <time>2021-10-18T12:06:20.401Z</time>
      </trkpt>
      <trkpt lat="49.46373" lon="3.69699">
        <ele>86.64</ele>
        <time>2021-10-18T12:06:31.999Z</time>
      </trkpt>
      <trkpt lat="49.46373" lon="3.69694">
        <ele>86.84</ele>
        <time>2021-10-18T12:06:41.162Z</time>
      </trkpt>
      <trkpt lat="49.46369" lon="3.69693">
        <ele>86.59</ele>
        <time>2021-10-18T12:06:51.375Z</time>
      </trkpt>
      <trkpt lat="49.46375" lon="3.69694">
        <ele>86.52</ele>
        <time>2021-10-18T12:07:00.402Z</time>
      </trkpt>
      <trkpt lat="49.46375" lon="3.69671">
        <ele>86.46</ele>
        <time>2021-10-18T12:07:09.503Z</time>
      </trkpt>
      <trkpt lat="49.4639" lon="3.69653">
        <ele>86.56</ele>
        <time>2021-10-18T12:07:18.996Z</time>
      </trkpt>
      <trkpt lat="49.46408" lon="3.6965">
        <ele>86.64</ele>
        <time>2021-10-18T12:07:28.420Z</time>
      </trkpt>
      <trkpt lat="49.46423" lon="3.69649">
        <ele>86.46</ele>
        <time>2021-10-18T12:07:37.441Z</time>
      </trkpt>
      <trkpt lat="49.46438" lon="3.6965">
        <ele>86.46</ele>
        <time>2021-10-18T12:07:47.002Z</time>
      </trkpt>
      <trkpt lat="49.46454" lon="3.69654">
        <ele>86.32</ele>
        <time>2021-10-18T12:07:56.542Z</time>
      </trkpt>
      <trkpt lat="49.46468" lon="3.6966">
        <ele>96.69</ele>
        <time>2021-10-18T12:08:05.597Z</time>
      </trkpt>
      <trkpt lat="49.46482" lon="3.69666">
        <ele>97.7</ele>
        <time>2021-10-18T12:08:14.659Z</time>
      </trkpt>
      <trkpt lat="49.46499" lon="3.69672">
        <ele>97.06</ele>
        <time>2021-10-18T12:08:24.581Z</time>
      </trkpt>
      <trkpt lat="49.46513" lon="3.69675">
        <ele>98.6</ele>
        <time>2021-10-18T12:08:34.157Z</time>
      </trkpt>
      <trkpt lat="49.46524" lon="3.69677">
        <ele>99.36</ele>
        <time>2021-10-18T12:08:43.759Z</time>
      </trkpt>
      <trkpt lat="49.46536" lon="3.6968">
        <ele>99.18</ele>
        <time>2021-10-18T12:08:52.999Z</time>
      </trkpt>
      <trkpt lat="49.46538" lon="3.69682">
        <ele>97.96</ele>
        <time>2021-10-18T12:09:02.999Z</time>
      </trkpt>
      <trkpt lat="49.46539" lon="3.69684">
        <ele>99.29</ele>
        <time>2021-10-18T12:09:12.361Z</time>
      </trkpt>
      <trkpt lat="49.4655" lon="3.69685">
        <ele>100.38</ele>
        <time>2021-10-18T12:09:21.516Z</time>
      </trkpt>
      <trkpt lat="49.46565" lon="3.69686">
        <ele>98</ele>
        <time>2021-10-18T12:09:30.999Z</time>
      </trkpt>
      <trkpt lat="49.46579" lon="3.69682">
        <ele>101.89</ele>
        <time>2021-10-18T12:09:40.245Z</time>
      </trkpt>
      <trkpt lat="49.46593" lon="3.69677">
        <ele>101.94</ele>
        <time>2021-10-18T12:09:49.681Z</time>
      </trkpt>
      <trkpt lat="49.46607" lon="3.69672">
        <ele>100.35</ele>
        <time>2021-10-18T12:09:58.999Z</time>
      </trkpt>
      <trkpt lat="49.46618" lon="3.69669">
        <ele>118.73</ele>
        <time>2021-10-18T12:10:08.440Z</time>
      </trkpt>
      <trkpt lat="49.46629" lon="3.69678">
        <ele>118.29</ele>
        <time>2021-10-18T12:10:18.322Z</time>
      </trkpt>
      <trkpt lat="49.46625" lon="3.697">
        <ele>116</ele>
        <time>2021-10-18T12:10:28.243Z</time>
      </trkpt>
      <trkpt lat="49.46622" lon="3.69715">
        <ele>114.09</ele>
        <time>2021-10-18T12:10:37.999Z</time>
      </trkpt>
      <trkpt lat="49.46621" lon="3.69716">
        <ele>112.9</ele>
        <time>2021-10-18T12:10:48.999Z</time>
      </trkpt>
      <trkpt lat="49.46618" lon="3.6972">
        <ele>112.14</ele>
        <time>2021-10-18T12:10:59.359Z</time>
      </trkpt>
      <trkpt lat="49.46615" lon="3.69728">
        <ele>111.64</ele>
        <time>2021-10-18T12:11:08.916Z</time>
      </trkpt>
      <trkpt lat="49.46617" lon="3.69747">
        <ele>111.68</ele>
        <time>2021-10-18T12:11:18.600Z</time>
      </trkpt>
      <trkpt lat="49.46611" lon="3.69757">
        <ele>111.63</ele>
        <time>2021-10-18T12:11:28.381Z</time>
      </trkpt>
      <trkpt lat="49.46611" lon="3.69775">
        <ele>111.5</ele>
        <time>2021-10-18T12:11:37.401Z</time>
      </trkpt>
      <trkpt lat="49.46608" lon="3.69786">
        <ele>111.42</ele>
        <time>2021-10-18T12:11:46.407Z</time>
      </trkpt>
      <trkpt lat="49.46608" lon="3.69799">
        <ele>111.49</ele>
        <time>2021-10-18T12:11:56.402Z</time>
      </trkpt>
      <trkpt lat="49.46616" lon="3.69812">
        <ele>111.43</ele>
        <time>2021-10-18T12:12:05.667Z</time>
      </trkpt>
      <trkpt lat="49.46617" lon="3.6982">
        <ele>111.35</ele>
        <time>2021-10-18T12:12:15.321Z</time>
      </trkpt>
      <trkpt lat="49.46623" lon="3.69838">
        <ele>111.09</ele>
        <time>2021-10-18T12:12:24.843Z</time>
      </trkpt>
      <trkpt lat="49.46626" lon="3.69861">
        <ele>111.13</ele>
        <time>2021-10-18T12:12:34.219Z</time>
      </trkpt>
      <trkpt lat="49.46633" lon="3.69879">
        <ele>111.12</ele>
        <time>2021-10-18T12:12:43.241Z</time>
      </trkpt>
      <trkpt lat="49.46643" lon="3.69895">
        <ele>111.25</ele>
        <time>2021-10-18T12:12:52.695Z</time>
      </trkpt>
      <trkpt lat="49.46652" lon="3.6991">
        <ele>111.11</ele>
        <time>2021-10-18T12:13:02.561Z</time>
      </trkpt>
      <trkpt lat="49.46658" lon="3.69924">
        <ele>111.09</ele>
        <time>2021-10-18T12:13:11.575Z</time>
      </trkpt>
      <trkpt lat="49.46646" lon="3.69938">
        <ele>110.86</ele>
        <time>2021-10-18T12:13:21.119Z</time>
      </trkpt>
      <trkpt lat="49.46634" lon="3.69945">
        <ele>111</ele>
        <time>2021-10-18T12:13:30.580Z</time>
      </trkpt>
      <trkpt lat="49.46623" lon="3.69954">
        <ele>109.83</ele>
        <time>2021-10-18T12:13:40.162Z</time>
      </trkpt>
      <trkpt lat="49.46614" lon="3.69964">
        <ele>109.26</ele>
        <time>2021-10-18T12:13:50.056Z</time>
      </trkpt>
      <trkpt lat="49.46604" lon="3.69975">
        <ele>108.94</ele>
        <time>2021-10-18T12:13:59.735Z</time>
      </trkpt>
      <trkpt lat="49.46595" lon="3.69983">
        <ele>108.82</ele>
        <time>2021-10-18T12:14:09.435Z</time>
      </trkpt>
      <trkpt lat="49.46592" lon="3.69999">
        <ele>107.01</ele>
        <time>2021-10-18T12:14:19.320Z</time>
      </trkpt>
      <trkpt lat="49.46594" lon="3.70014">
        <ele>105.94</ele>
        <time>2021-10-18T12:14:28.537Z</time>
      </trkpt>
      <trkpt lat="49.46595" lon="3.70031">
        <ele>105.36</ele>
        <time>2021-10-18T12:14:37.999Z</time>
      </trkpt>
      <trkpt lat="49.46596" lon="3.70046">
        <ele>105.31</ele>
        <time>2021-10-18T12:14:47.038Z</time>
      </trkpt>
      <trkpt lat="49.46598" lon="3.70061">
        <ele>103.25</ele>
        <time>2021-10-18T12:14:56.124Z</time>
      </trkpt>
      <trkpt lat="49.466" lon="3.70077">
        <ele>102.22</ele>
        <time>2021-10-18T12:15:05.377Z</time>
      </trkpt>
      <trkpt lat="49.46607" lon="3.70089">
        <ele>101.85</ele>
        <time>2021-10-18T12:15:14.539Z</time>
      </trkpt>
      <trkpt lat="49.46615" lon="3.70102">
        <ele>101.83</ele>
        <time>2021-10-18T12:15:23.881Z</time>
      </trkpt>
      <trkpt lat="49.46624" lon="3.70112">
        <ele>101.81</ele>
        <time>2021-10-18T12:15:33.157Z</time>
      </trkpt>
      <trkpt lat="49.46634" lon="3.7012">
        <ele>101.75</ele>
        <time>2021-10-18T12:15:42.396Z</time>
      </trkpt>
      <trkpt lat="49.46642" lon="3.70129">
        <ele>102</ele>
        <time>2021-10-18T12:15:51.664Z</time>
      </trkpt>
      <trkpt lat="49.46649" lon="3.7014">
        <ele>101.84</ele>
        <time>2021-10-18T12:16:01.176Z</time>
      </trkpt>
      <trkpt lat="49.46659" lon="3.70151">
        <ele>101.85</ele>
        <time>2021-10-18T12:16:10.198Z</time>
      </trkpt>
      <trkpt lat="49.46666" lon="3.70166">
        <ele>102.09</ele>
        <time>2021-10-18T12:16:19.659Z</time>
      </trkpt>
      <trkpt lat="49.46675" lon="3.70173">
        <ele>102.27</ele>
        <time>2021-10-18T12:16:29.204Z</time>
      </trkpt>
      <trkpt lat="49.46684" lon="3.70176">
        <ele>102.66</ele>
        <time>2021-10-18T12:16:38.660Z</time>
      </trkpt>
      <trkpt lat="49.46692" lon="3.7017">
        <ele>102.8</ele>
        <time>2021-10-18T12:16:48.201Z</time>
      </trkpt>
      <trkpt lat="49.46701" lon="3.70164">
        <ele>103.09</ele>
        <time>2021-10-18T12:16:57.376Z</time>
      </trkpt>
      <trkpt lat="49.46713" lon="3.70162">
        <ele>103.26</ele>
        <time>2021-10-18T12:17:06.841Z</time>
      </trkpt>
      <trkpt lat="49.46722" lon="3.70155">
        <ele>103.69</ele>
        <time>2021-10-18T12:17:16.055Z</time>
      </trkpt>
      <trkpt lat="49.46733" lon="3.70149">
        <ele>104.1</ele>
        <time>2021-10-18T12:17:26.138Z</time>
      </trkpt>
      <trkpt lat="49.46743" lon="3.70144">
        <ele>104.72</ele>
        <time>2021-10-18T12:17:35.601Z</time>
      </trkpt>
      <trkpt lat="49.46751" lon="3.70132">
        <ele>104.77</ele>
        <time>2021-10-18T12:17:45.122Z</time>
      </trkpt>
      <trkpt lat="49.46753" lon="3.70114">
        <ele>104.78</ele>
        <time>2021-10-18T12:17:54.534Z</time>
      </trkpt>
      <trkpt lat="49.46752" lon="3.70097">
        <ele>102.91</ele>
        <time>2021-10-18T12:18:03.542Z</time>
      </trkpt>
      <trkpt lat="49.46751" lon="3.70081">
        <ele>103.16</ele>
        <time>2021-10-18T12:18:12.764Z</time>
      </trkpt>
      <trkpt lat="49.46748" lon="3.70066">
        <ele>103.29</ele>
        <time>2021-10-18T12:18:22.400Z</time>
      </trkpt>
      <trkpt lat="49.46744" lon="3.70049">
        <ele>104.39</ele>
        <time>2021-10-18T12:18:31.665Z</time>
      </trkpt>
      <trkpt lat="49.46745" lon="3.70032">
        <ele>104.48</ele>
        <time>2021-10-18T12:18:41.315Z</time>
      </trkpt>
      <trkpt lat="49.46745" lon="3.70014">
        <ele>105.9</ele>
        <time>2021-10-18T12:18:51.141Z</time>
      </trkpt>
      <trkpt lat="49.46746" lon="3.69999">
        <ele>105.81</ele>
        <time>2021-10-18T12:19:00.263Z</time>
      </trkpt>
      <trkpt lat="49.46745" lon="3.69982">
        <ele>105.93</ele>
        <time>2021-10-18T12:19:10.403Z</time>
      </trkpt>
      <trkpt lat="49.46745" lon="3.69965">
        <ele>106</ele>
        <time>2021-10-18T12:19:19.584Z</time>
      </trkpt>
      <trkpt lat="49.46748" lon="3.69948">
        <ele>106.06</ele>
        <time>2021-10-18T12:19:29.296Z</time>
      </trkpt>
      <trkpt lat="49.46752" lon="3.69933">
        <ele>106.08</ele>
        <time>2021-10-18T12:19:38.581Z</time>
      </trkpt>
      <trkpt lat="49.46758" lon="3.69921">
        <ele>110.13</ele>
        <time>2021-10-18T12:19:47.684Z</time>
      </trkpt>
      <trkpt lat="49.46762" lon="3.69906">
        <ele>110.08</ele>
        <time>2021-10-18T12:19:56.735Z</time>
      </trkpt>
      <trkpt lat="49.46759" lon="3.69888">
        <ele>111.41</ele>
        <time>2021-10-18T12:20:06.661Z</time>
      </trkpt>
      <trkpt lat="49.46756" lon="3.69873">
        <ele>111.98</ele>
        <time>2021-10-18T12:20:16.016Z</time>
      </trkpt>
      <trkpt lat="49.46753" lon="3.69858">
        <ele>112.45</ele>
        <time>2021-10-18T12:20:25.380Z</time>
      </trkpt>
      <trkpt lat="49.4675" lon="3.69841">
        <ele>113.84</ele>
        <time>2021-10-18T12:20:34.999Z</time>
      </trkpt>
      <trkpt lat="49.46749" lon="3.69843">
        <ele>113.75</ele>
        <time>2021-10-18T12:20:44.999Z</time>
      </trkpt>
      <trkpt lat="49.46749" lon="3.69841">
        <ele>115.12</ele>
        <time>2021-10-18T12:21:04.556Z</time>
      </trkpt>
      <trkpt lat="49.46745" lon="3.69827">
        <ele>115.17</ele>
        <time>2021-10-18T12:21:14.371Z</time>
      </trkpt>
      <trkpt lat="49.46743" lon="3.6982">
        <ele>115.69</ele>
        <time>2021-10-18T12:21:24.377Z</time>
      </trkpt>
      <trkpt lat="49.46741" lon="3.69806">
        <ele>117.95</ele>
        <time>2021-10-18T12:21:33.675Z</time>
      </trkpt>
      <trkpt lat="49.46736" lon="3.69786">
        <ele>115.86</ele>
        <time>2021-10-18T12:21:43.657Z</time>
      </trkpt>
      <trkpt lat="49.46731" lon="3.69769">
        <ele>117.79</ele>
        <time>2021-10-18T12:21:53.439Z</time>
      </trkpt>
      <trkpt lat="49.46727" lon="3.69753">
        <ele>116.59</ele>
        <time>2021-10-18T12:22:02.515Z</time>
      </trkpt>
      <trkpt lat="49.46726" lon="3.69736">
        <ele>118.03</ele>
        <time>2021-10-18T12:22:11.677Z</time>
      </trkpt>
      <trkpt lat="49.46725" lon="3.6972">
        <ele>117.56</ele>
        <time>2021-10-18T12:22:21.060Z</time>
      </trkpt>
      <trkpt lat="49.46727" lon="3.69704">
        <ele>117.6</ele>
        <time>2021-10-18T12:22:30.436Z</time>
      </trkpt>
      <trkpt lat="49.46729" lon="3.69705">
        <ele>118.51</ele>
        <time>2021-10-18T12:22:39.999Z</time>
      </trkpt>
      <trkpt lat="49.46731" lon="3.69699">
        <ele>86.23</ele>
        <time>2021-10-18T12:22:49.580Z</time>
      </trkpt>
      <trkpt lat="49.46739" lon="3.69695">
        <ele>86.25</ele>
        <time>2021-10-18T12:22:58.664Z</time>
      </trkpt>
      <trkpt lat="49.46745" lon="3.69689">
        <ele>86.24</ele>
        <time>2021-10-18T12:23:07.697Z</time>
      </trkpt>
      <trkpt lat="49.46751" lon="3.69685">
        <ele>86.3</ele>
        <time>2021-10-18T12:23:16.999Z</time>
      </trkpt>
      <trkpt lat="49.4676" lon="3.6968">
        <ele>86.4</ele>
        <time>2021-10-18T12:23:27.779Z</time>
      </trkpt>
      <trkpt lat="49.46767" lon="3.69674">
        <ele>86.41</ele>
        <time>2021-10-18T12:23:37.255Z</time>
      </trkpt>
      <trkpt lat="49.46775" lon="3.69667">
        <ele>122.24</ele>
        <time>2021-10-18T12:23:46.438Z</time>
      </trkpt>
      <trkpt lat="49.46784" lon="3.69659">
        <ele>122.84</ele>
        <time>2021-10-18T12:23:55.462Z</time>
      </trkpt>
      <trkpt lat="49.46792" lon="3.69653">
        <ele>125.62</ele>
        <time>2021-10-18T12:24:04.536Z</time>
      </trkpt>
      <trkpt lat="49.468" lon="3.69647">
        <ele>122.96</ele>
        <time>2021-10-18T12:24:13.616Z</time>
      </trkpt>
      <trkpt lat="49.4681" lon="3.69641">
        <ele>123.87</ele>
        <time>2021-10-18T12:24:22.811Z</time>
      </trkpt>
      <trkpt lat="49.46818" lon="3.69635">
        <ele>124.61</ele>
        <time>2021-10-18T12:24:32.418Z</time>
      </trkpt>
      <trkpt lat="49.46826" lon="3.69628">
        <ele>129.63</ele>
        <time>2021-10-18T12:24:41.543Z</time>
      </trkpt>
      <trkpt lat="49.46833" lon="3.69621">
        <ele>126.57</ele>
        <time>2021-10-18T12:24:50.778Z</time>
      </trkpt>
      <trkpt lat="49.46842" lon="3.69614">
        <ele>129.7</ele>
        <time>2021-10-18T12:24:59.999Z</time>
      </trkpt>
      <trkpt lat="49.46849" lon="3.69606">
        <ele>130.28</ele>
        <time>2021-10-18T12:25:10.579Z</time>
      </trkpt>
      <trkpt lat="49.46855" lon="3.69598">
        <ele>132.16</ele>
        <time>2021-10-18T12:25:20.600Z</time>
      </trkpt>
      <trkpt lat="49.46865" lon="3.6959">
        <ele>134.87</ele>
        <time>2021-10-18T12:25:30.544Z</time>
      </trkpt>
      <trkpt lat="49.46876" lon="3.69583">
        <ele>131.67</ele>
        <time>2021-10-18T12:25:40.541Z</time>
      </trkpt>
      <trkpt lat="49.46884" lon="3.69576">
        <ele>135.44</ele>
        <time>2021-10-18T12:25:50.484Z</time>
      </trkpt>
      <trkpt lat="49.46892" lon="3.69565">
        <ele>134.76</ele>
        <time>2021-10-18T12:26:00.481Z</time>
      </trkpt>
      <trkpt lat="49.469" lon="3.69555">
        <ele>138.33</ele>
        <time>2021-10-18T12:26:10.295Z</time>
      </trkpt>
      <trkpt lat="49.46907" lon="3.69549">
        <ele>139.98</ele>
        <time>2021-10-18T12:26:19.540Z</time>
      </trkpt>
      <trkpt lat="49.46915" lon="3.69541">
        <ele>141.94</ele>
        <time>2021-10-18T12:26:28.664Z</time>
      </trkpt>
      <trkpt lat="49.46923" lon="3.69534">
        <ele>142.27</ele>
        <time>2021-10-18T12:26:38.176Z</time>
      </trkpt>
      <trkpt lat="49.46928" lon="3.69526">
        <ele>138.64</ele>
        <time>2021-10-18T12:26:47.402Z</time>
      </trkpt>
      <trkpt lat="49.46934" lon="3.69514">
        <ele>142.37</ele>
        <time>2021-10-18T12:26:56.617Z</time>
      </trkpt>
      <trkpt lat="49.4694" lon="3.69503">
        <ele>145.64</ele>
        <time>2021-10-18T12:27:06.363Z</time>
      </trkpt>
      <trkpt lat="49.46946" lon="3.69491">
        <ele>141.19</ele>
        <time>2021-10-18T12:27:15.523Z</time>
      </trkpt>
      <trkpt lat="49.46952" lon="3.6948">
        <ele>148.18</ele>
        <time>2021-10-18T12:27:24.961Z</time>
      </trkpt>
      <trkpt lat="49.46959" lon="3.69465">
        <ele>151.66</ele>
        <time>2021-10-18T12:27:33.999Z</time>
      </trkpt>
      <trkpt lat="49.46967" lon="3.69456">
        <ele>148.91</ele>
        <time>2021-10-18T12:27:43.238Z</time>
      </trkpt>
      <trkpt lat="49.46974" lon="3.69447">
        <ele>147.37</ele>
        <time>2021-10-18T12:27:52.719Z</time>
      </trkpt>
      <trkpt lat="49.46981" lon="3.69435">
        <ele>153</ele>
        <time>2021-10-18T12:28:02.462Z</time>
      </trkpt>
      <trkpt lat="49.46988" lon="3.69422">
        <ele>154.91</ele>
        <time>2021-10-18T12:28:12.215Z</time>
      </trkpt>
      <trkpt lat="49.46996" lon="3.69413">
        <ele>154.92</ele>
        <time>2021-10-18T12:28:21.371Z</time>
      </trkpt>
      <trkpt lat="49.47003" lon="3.69404">
        <ele>155.6</ele>
        <time>2021-10-18T12:28:30.597Z</time>
      </trkpt>
      <trkpt lat="49.47015" lon="3.69399">
        <ele>155.43</ele>
        <time>2021-10-18T12:28:40.480Z</time>
      </trkpt>
      <trkpt lat="49.47024" lon="3.69393">
        <ele>154.69</ele>
        <time>2021-10-18T12:28:49.641Z</time>
      </trkpt>
      <trkpt lat="49.47031" lon="3.69387">
        <ele>153.35</ele>
        <time>2021-10-18T12:28:59.002Z</time>
      </trkpt>
      <trkpt lat="49.47039" lon="3.69383">
        <ele>157.48</ele>
        <time>2021-10-18T12:29:08.364Z</time>
      </trkpt>
      <trkpt lat="49.47046" lon="3.69381">
        <ele>157.12</ele>
        <time>2021-10-18T12:29:18.100Z</time>
      </trkpt>
      <trkpt lat="49.47056" lon="3.69379">
        <ele>159.68</ele>
        <time>2021-10-18T12:29:27.418Z</time>
      </trkpt>
      <trkpt lat="49.47067" lon="3.69375">
        <ele>153.72</ele>
        <time>2021-10-18T12:29:37.384Z</time>
      </trkpt>
      <trkpt lat="49.47079" lon="3.69371">
        <ele>157.88</ele>
        <time>2021-10-18T12:29:46.539Z</time>
      </trkpt>
      <trkpt lat="49.47089" lon="3.69367">
        <ele>159.42</ele>
        <time>2021-10-18T12:29:55.735Z</time>
      </trkpt>
      <trkpt lat="49.47098" lon="3.69368">
        <ele>160.73</ele>
        <time>2021-10-18T12:30:05.374Z</time>
      </trkpt>
      <trkpt lat="49.47106" lon="3.6937">
        <ele>161.22</ele>
        <time>2021-10-18T12:30:14.657Z</time>
      </trkpt>
      <trkpt lat="49.47114" lon="3.6937">
        <ele>162.61</ele>
        <time>2021-10-18T12:30:24.281Z</time>
      </trkpt>
      <trkpt lat="49.4712" lon="3.69384">
        <ele>165.47</ele>
        <time>2021-10-18T12:30:33.999Z</time>
      </trkpt>
      <trkpt lat="49.47122" lon="3.69382">
        <ele>163.56</ele>
        <time>2021-10-18T12:30:43.999Z</time>
      </trkpt>
      <trkpt lat="49.47121" lon="3.69379">
        <ele>164.65</ele>
        <time>2021-10-18T12:30:53.999Z</time>
      </trkpt>
      <trkpt lat="49.47122" lon="3.6938">
        <ele>169.15</ele>
        <time>2021-10-18T12:31:37.999Z</time>
      </trkpt>
      <trkpt lat="49.47115" lon="3.69379">
        <ele>172.03</ele>
        <time>2021-10-18T12:31:47.999Z</time>
      </trkpt>
      <trkpt lat="49.47115" lon="3.69383">
        <ele>174</ele>
        <time>2021-10-18T12:31:57.999Z</time>
      </trkpt>
      <trkpt lat="49.47114" lon="3.69377">
        <ele>173.28</ele>
        <time>2021-10-18T12:32:07.999Z</time>
      </trkpt>
      <trkpt lat="49.47115" lon="3.69374">
        <ele>175.09</ele>
        <time>2021-10-18T12:32:17.999Z</time>
      </trkpt>
      <trkpt lat="49.47113" lon="3.69376">
        <ele>169.72</ele>
        <time>2021-10-18T12:33:03.999Z</time>
      </trkpt>
      <trkpt lat="49.47103" lon="3.69381">
        <ele>171.86</ele>
        <time>2021-10-18T12:33:13.999Z</time>
      </trkpt>
      <trkpt lat="49.47095" lon="3.69385">
        <ele>171.53</ele>
        <time>2021-10-18T12:33:23.999Z</time>
      </trkpt>
      <trkpt lat="49.47085" lon="3.69388">
        <ele>169.53</ele>
        <time>2021-10-18T12:33:33.756Z</time>
      </trkpt>
      <trkpt lat="49.47079" lon="3.69391">
        <ele>172.42</ele>
        <time>2021-10-18T12:33:43.077Z</time>
      </trkpt>
      <trkpt lat="49.47069" lon="3.69396">
        <ele>169.23</ele>
        <time>2021-10-18T12:33:52.440Z</time>
      </trkpt>
      <trkpt lat="49.47058" lon="3.69402">
        <ele>170.3</ele>
        <time>2021-10-18T12:34:01.999Z</time>
      </trkpt>
      <trkpt lat="49.4705" lon="3.69407">
        <ele>172.03</ele>
        <time>2021-10-18T12:34:11.742Z</time>
      </trkpt>
      <trkpt lat="49.47039" lon="3.69414">
        <ele>171.67</ele>
        <time>2021-10-18T12:34:21.372Z</time>
      </trkpt>
      <trkpt lat="49.47029" lon="3.6942">
        <ele>174.02</ele>
        <time>2021-10-18T12:34:30.733Z</time>
      </trkpt>
      <trkpt lat="49.47018" lon="3.69431">
        <ele>171.92</ele>
        <time>2021-10-18T12:34:40.155Z</time>
      </trkpt>
      <trkpt lat="49.47008" lon="3.69443">
        <ele>171.57</ele>
        <time>2021-10-18T12:34:49.258Z</time>
      </trkpt>
      <trkpt lat="49.46998" lon="3.69453">
        <ele>171.21</ele>
        <time>2021-10-18T12:34:59.256Z</time>
      </trkpt>
      <trkpt lat="49.4699" lon="3.69466">
        <ele>170.8</ele>
        <time>2021-10-18T12:35:08.687Z</time>
      </trkpt>
      <trkpt lat="49.46982" lon="3.69481">
        <ele>171.12</ele>
        <time>2021-10-18T12:35:18.007Z</time>
      </trkpt>
      <trkpt lat="49.46978" lon="3.69496">
        <ele>170.13</ele>
        <time>2021-10-18T12:35:27.361Z</time>
      </trkpt>
      <trkpt lat="49.46973" lon="3.69508">
        <ele>171.89</ele>
        <time>2021-10-18T12:35:36.401Z</time>
      </trkpt>
      <trkpt lat="49.46966" lon="3.69521">
        <ele>171.01</ele>
        <time>2021-10-18T12:35:45.515Z</time>
      </trkpt>
      <trkpt lat="49.4696" lon="3.69533">
        <ele>170.69</ele>
        <time>2021-10-18T12:35:54.517Z</time>
      </trkpt>
      <trkpt lat="49.46953" lon="3.69544">
        <ele>172.71</ele>
        <time>2021-10-18T12:36:04.521Z</time>
      </trkpt>
      <trkpt lat="49.46947" lon="3.69557">
        <ele>170.28</ele>
        <time>2021-10-18T12:36:13.981Z</time>
      </trkpt>
      <trkpt lat="49.46941" lon="3.69571">
        <ele>171.74</ele>
        <time>2021-10-18T12:36:23.403Z</time>
      </trkpt>
      <trkpt lat="49.46939" lon="3.69586">
        <ele>168.73</ele>
        <time>2021-10-18T12:36:33.370Z</time>
      </trkpt>
      <trkpt lat="49.46936" lon="3.69602">
        <ele>170.06</ele>
        <time>2021-10-18T12:36:43.504Z</time>
      </trkpt>
      <trkpt lat="49.46934" lon="3.69619">
        <ele>166.2</ele>
        <time>2021-10-18T12:36:52.724Z</time>
      </trkpt>
      <trkpt lat="49.46933" lon="3.69637">
        <ele>166.81</ele>
        <time>2021-10-18T12:37:02.159Z</time>
      </trkpt>
      <trkpt lat="49.46936" lon="3.69652">
        <ele>164.05</ele>
        <time>2021-10-18T12:37:11.516Z</time>
      </trkpt>
      <trkpt lat="49.46942" lon="3.69667">
        <ele>165.4</ele>
        <time>2021-10-18T12:37:20.581Z</time>
      </trkpt>
      <trkpt lat="49.46949" lon="3.69679">
        <ele>164.34</ele>
        <time>2021-10-18T12:37:29.604Z</time>
      </trkpt>
      <trkpt lat="49.46958" lon="3.6969">
        <ele>163.58</ele>
        <time>2021-10-18T12:37:39.320Z</time>
      </trkpt>
      <trkpt lat="49.46967" lon="3.69698">
        <ele>164.95</ele>
        <time>2021-10-18T12:37:49.115Z</time>
      </trkpt>
      <trkpt lat="49.46975" lon="3.69708">
        <ele>164.74</ele>
        <time>2021-10-18T12:37:58.263Z</time>
      </trkpt>
      <trkpt lat="49.46982" lon="3.69719">
        <ele>163.66</ele>
        <time>2021-10-18T12:38:07.583Z</time>
      </trkpt>
      <trkpt lat="49.46992" lon="3.69725">
        <ele>163.38</ele>
        <time>2021-10-18T12:38:16.999Z</time>
      </trkpt>
      <trkpt lat="49.46999" lon="3.69733">
        <ele>166.85</ele>
        <time>2021-10-18T12:38:26.061Z</time>
      </trkpt>
      <trkpt lat="49.47007" lon="3.69743">
        <ele>161.76</ele>
        <time>2021-10-18T12:38:35.123Z</time>
      </trkpt>
      <trkpt lat="49.47014" lon="3.69754">
        <ele>161.24</ele>
        <time>2021-10-18T12:38:44.295Z</time>
      </trkpt>
      <trkpt lat="49.4702" lon="3.69766">
        <ele>163.68</ele>
        <time>2021-10-18T12:38:53.504Z</time>
      </trkpt>
      <trkpt lat="49.47026" lon="3.69779">
        <ele>161.67</ele>
        <time>2021-10-18T12:39:02.635Z</time>
      </trkpt>
      <trkpt lat="49.47034" lon="3.69793">
        <ele>163.78</ele>
        <time>2021-10-18T12:39:12.496Z</time>
      </trkpt>
      <trkpt lat="49.4704" lon="3.69807">
        <ele>164.03</ele>
        <time>2021-10-18T12:39:22.415Z</time>
      </trkpt>
      <trkpt lat="49.47047" lon="3.6982">
        <ele>163.09</ele>
        <time>2021-10-18T12:39:32.378Z</time>
      </trkpt>
      <trkpt lat="49.47053" lon="3.69834">
        <ele>161.57</ele>
        <time>2021-10-18T12:39:42.435Z</time>
      </trkpt>
      <trkpt lat="49.47058" lon="3.69848">
        <ele>163.31</ele>
        <time>2021-10-18T12:39:51.999Z</time>
      </trkpt>
      <trkpt lat="49.47064" lon="3.69864">
        <ele>163.12</ele>
        <time>2021-10-18T12:40:02.002Z</time>
      </trkpt>
      <trkpt lat="49.4707" lon="3.69878">
        <ele>163.58</ele>
        <time>2021-10-18T12:40:11.096Z</time>
      </trkpt>
      <trkpt lat="49.47072" lon="3.69893">
        <ele>163.78</ele>
        <time>2021-10-18T12:40:20.219Z</time>
      </trkpt>
      <trkpt lat="49.47069" lon="3.6991">
        <ele>163.42</ele>
        <time>2021-10-18T12:40:29.319Z</time>
      </trkpt>
      <trkpt lat="49.47067" lon="3.69927">
        <ele>163.06</ele>
        <time>2021-10-18T12:40:39.443Z</time>
      </trkpt>
      <trkpt lat="49.47064" lon="3.69942">
        <ele>162.48</ele>
        <time>2021-10-18T12:40:48.495Z</time>
      </trkpt>
      <trkpt lat="49.47062" lon="3.69958">
        <ele>164.95</ele>
        <time>2021-10-18T12:40:57.520Z</time>
      </trkpt>
      <trkpt lat="49.47057" lon="3.69975">
        <ele>166.95</ele>
        <time>2021-10-18T12:41:07.503Z</time>
      </trkpt>
      <trkpt lat="49.4705" lon="3.69992">
        <ele>167.06</ele>
        <time>2021-10-18T12:41:16.999Z</time>
      </trkpt>
      <trkpt lat="49.47044" lon="3.70006">
        <ele>166.36</ele>
        <time>2021-10-18T12:41:27.301Z</time>
      </trkpt>
      <trkpt lat="49.47039" lon="3.70017">
        <ele>167.38</ele>
        <time>2021-10-18T12:41:36.371Z</time>
      </trkpt>
      <trkpt lat="49.47037" lon="3.7003">
        <ele>166.27</ele>
        <time>2021-10-18T12:41:45.642Z</time>
      </trkpt>
      <trkpt lat="49.47032" lon="3.70039">
        <ele>167.4</ele>
        <time>2021-10-18T12:41:55.416Z</time>
      </trkpt>
      <trkpt lat="49.47031" lon="3.70049">
        <ele>165</ele>
        <time>2021-10-18T12:42:04.999Z</time>
      </trkpt>
      <trkpt lat="49.4703" lon="3.70054">
        <ele>164.42</ele>
        <time>2021-10-18T12:42:14.999Z</time>
      </trkpt>
      <trkpt lat="49.47029" lon="3.70056">
        <ele>165.31</ele>
        <time>2021-10-18T12:42:24.999Z</time>
      </trkpt>
      <trkpt lat="49.4703" lon="3.70063">
        <ele>164.67</ele>
        <time>2021-10-18T12:42:34.999Z</time>
      </trkpt>
      <trkpt lat="49.47029" lon="3.70071">
        <ele>163.97</ele>
        <time>2021-10-18T12:42:44.237Z</time>
      </trkpt>
      <trkpt lat="49.47034" lon="3.70085">
        <ele>169.03</ele>
        <time>2021-10-18T12:42:53.783Z</time>
      </trkpt>
      <trkpt lat="49.47041" lon="3.70093">
        <ele>169.96</ele>
        <time>2021-10-18T12:43:03.407Z</time>
      </trkpt>
      <trkpt lat="49.47054" lon="3.70104">
        <ele>168.84</ele>
        <time>2021-10-18T12:43:12.476Z</time>
      </trkpt>
      <trkpt lat="49.47066" lon="3.70116">
        <ele>170.32</ele>
        <time>2021-10-18T12:43:22.441Z</time>
      </trkpt>
      <trkpt lat="49.47082" lon="3.7013">
        <ele>168.62</ele>
        <time>2021-10-18T12:43:31.999Z</time>
      </trkpt>
      <trkpt lat="49.47094" lon="3.70145">
        <ele>172.85</ele>
        <time>2021-10-18T12:43:41.183Z</time>
      </trkpt>
      <trkpt lat="49.47104" lon="3.70159">
        <ele>171.3</ele>
        <time>2021-10-18T12:43:50.600Z</time>
      </trkpt>
      <trkpt lat="49.47107" lon="3.70177">
        <ele>171.98</ele>
        <time>2021-10-18T12:44:00.502Z</time>
      </trkpt>
      <trkpt lat="49.47105" lon="3.70196">
        <ele>175.49</ele>
        <time>2021-10-18T12:44:10.419Z</time>
      </trkpt>
      <trkpt lat="49.47107" lon="3.7021">
        <ele>172.01</ele>
        <time>2021-10-18T12:44:19.722Z</time>
      </trkpt>
      <trkpt lat="49.47111" lon="3.70228">
        <ele>170.38</ele>
        <time>2021-10-18T12:44:29.077Z</time>
      </trkpt>
      <trkpt lat="49.47112" lon="3.70243">
        <ele>169.15</ele>
        <time>2021-10-18T12:44:38.419Z</time>
      </trkpt>
      <trkpt lat="49.47116" lon="3.70262">
        <ele>169.3</ele>
        <time>2021-10-18T12:44:48.498Z</time>
      </trkpt>
      <trkpt lat="49.47119" lon="3.70281">
        <ele>166.49</ele>
        <time>2021-10-18T12:44:57.724Z</time>
      </trkpt>
      <trkpt lat="49.4712" lon="3.70302">
        <ele>168.1</ele>
        <time>2021-10-18T12:45:07.241Z</time>
      </trkpt>
      <trkpt lat="49.4712" lon="3.70321">
        <ele>167.88</ele>
        <time>2021-10-18T12:45:17.575Z</time>
      </trkpt>
      <trkpt lat="49.47125" lon="3.7034">
        <ele>167.36</ele>
        <time>2021-10-18T12:45:26.596Z</time>
      </trkpt>
      <trkpt lat="49.47137" lon="3.70351">
        <ele>172.72</ele>
        <time>2021-10-18T12:45:35.680Z</time>
      </trkpt>
      <trkpt lat="49.47145" lon="3.70362">
        <ele>175.62</ele>
        <time>2021-10-18T12:45:45.001Z</time>
      </trkpt>
      <trkpt lat="49.47145" lon="3.70377">
        <ele>177.09</ele>
        <time>2021-10-18T12:45:54.369Z</time>
      </trkpt>
      <trkpt lat="49.47146" lon="3.70392">
        <ele>176.13</ele>
        <time>2021-10-18T12:46:03.622Z</time>
      </trkpt>
      <trkpt lat="49.47145" lon="3.70407">
        <ele>177.03</ele>
        <time>2021-10-18T12:46:13.480Z</time>
      </trkpt>
      <trkpt lat="49.47145" lon="3.70424">
        <ele>176.54</ele>
        <time>2021-10-18T12:46:22.665Z</time>
      </trkpt>
      <trkpt lat="49.47142" lon="3.70442">
        <ele>181.76</ele>
        <time>2021-10-18T12:46:32.477Z</time>
      </trkpt>
      <trkpt lat="49.47131" lon="3.70446">
        <ele>182.31</ele>
        <time>2021-10-18T12:46:42.301Z</time>
      </trkpt>
      <trkpt lat="49.4712" lon="3.70444">
        <ele>181.82</ele>
        <time>2021-10-18T12:46:51.436Z</time>
      </trkpt>
      <trkpt lat="49.47109" lon="3.70443">
        <ele>180.53</ele>
        <time>2021-10-18T12:47:00.763Z</time>
      </trkpt>
      <trkpt lat="49.47102" lon="3.70456">
        <ele>178.03</ele>
        <time>2021-10-18T12:47:10.415Z</time>
      </trkpt>
      <trkpt lat="49.47109" lon="3.70478">
        <ele>176.37</ele>
        <time>2021-10-18T12:47:20.404Z</time>
      </trkpt>
      <trkpt lat="49.47117" lon="3.70497">
        <ele>177.24</ele>
        <time>2021-10-18T12:47:29.916Z</time>
      </trkpt>
      <trkpt lat="49.47123" lon="3.70517">
        <ele>177.21</ele>
        <time>2021-10-18T12:47:40.402Z</time>
      </trkpt>
      <trkpt lat="49.47131" lon="3.7053">
        <ele>180.62</ele>
        <time>2021-10-18T12:47:50.175Z</time>
      </trkpt>
      <trkpt lat="49.47138" lon="3.70542">
        <ele>180.77</ele>
        <time>2021-10-18T12:47:59.480Z</time>
      </trkpt>
      <trkpt lat="49.47143" lon="3.70556">
        <ele>180.18</ele>
        <time>2021-10-18T12:48:08.925Z</time>
      </trkpt>
      <trkpt lat="49.47148" lon="3.70575">
        <ele>181.27</ele>
        <time>2021-10-18T12:48:18.457Z</time>
      </trkpt>
      <trkpt lat="49.4715" lon="3.70591">
        <ele>178.99</ele>
        <time>2021-10-18T12:48:27.926Z</time>
      </trkpt>
      <trkpt lat="49.47153" lon="3.70607">
        <ele>179.11</ele>
        <time>2021-10-18T12:48:37.255Z</time>
      </trkpt>
      <trkpt lat="49.47158" lon="3.70621">
        <ele>178.76</ele>
        <time>2021-10-18T12:48:46.382Z</time>
      </trkpt>
      <trkpt lat="49.47165" lon="3.70635">
        <ele>177.9</ele>
        <time>2021-10-18T12:48:55.708Z</time>
      </trkpt>
      <trkpt lat="49.47174" lon="3.70647">
        <ele>177.1</ele>
        <time>2021-10-18T12:49:05.598Z</time>
      </trkpt>
      <trkpt lat="49.4718" lon="3.70662">
        <ele>178.54</ele>
        <time>2021-10-18T12:49:15.279Z</time>
      </trkpt>
      <trkpt lat="49.4719" lon="3.70674">
        <ele>179.9</ele>
        <time>2021-10-18T12:49:24.724Z</time>
      </trkpt>
      <trkpt lat="49.47197" lon="3.7069">
        <ele>178.94</ele>
        <time>2021-10-18T12:49:34.636Z</time>
      </trkpt>
      <trkpt lat="49.47203" lon="3.70706">
        <ele>178.67</ele>
        <time>2021-10-18T12:49:44.695Z</time>
      </trkpt>
      <trkpt lat="49.47212" lon="3.70718">
        <ele>182.08</ele>
        <time>2021-10-18T12:49:53.740Z</time>
      </trkpt>
      <trkpt lat="49.47221" lon="3.7073">
        <ele>183.11</ele>
        <time>2021-10-18T12:50:03.221Z</time>
      </trkpt>
      <trkpt lat="49.47228" lon="3.70747">
        <ele>179.82</ele>
        <time>2021-10-18T12:50:13.380Z</time>
      </trkpt>
      <trkpt lat="49.47235" lon="3.7076">
        <ele>182.92</ele>
        <time>2021-10-18T12:50:23.477Z</time>
      </trkpt>
      <trkpt lat="49.47244" lon="3.70767">
        <ele>180.24</ele>
        <time>2021-10-18T12:50:33.521Z</time>
      </trkpt>
      <trkpt lat="49.47251" lon="3.70779">
        <ele>176.94</ele>
        <time>2021-10-18T12:50:43.155Z</time>
      </trkpt>
      <trkpt lat="49.47255" lon="3.70792">
        <ele>177.85</ele>
        <time>2021-10-18T12:50:53.058Z</time>
      </trkpt>
      <trkpt lat="49.47259" lon="3.70809">
        <ele>174.55</ele>
        <time>2021-10-18T12:51:03.201Z</time>
      </trkpt>
      <trkpt lat="49.47262" lon="3.7083">
        <ele>176.83</ele>
        <time>2021-10-18T12:51:12.644Z</time>
      </trkpt>
      <trkpt lat="49.47266" lon="3.70844">
        <ele>173.7</ele>
        <time>2021-10-18T12:51:22.257Z</time>
      </trkpt>
      <trkpt lat="49.47272" lon="3.70858">
        <ele>173.51</ele>
        <time>2021-10-18T12:51:32.081Z</time>
      </trkpt>
      <trkpt lat="49.47277" lon="3.70873">
        <ele>175.1</ele>
        <time>2021-10-18T12:51:41.576Z</time>
      </trkpt>
      <trkpt lat="49.4728" lon="3.70891">
        <ele>174.37</ele>
        <time>2021-10-18T12:51:50.937Z</time>
      </trkpt>
      <trkpt lat="49.47283" lon="3.70909">
        <ele>173.8</ele>
        <time>2021-10-18T12:51:59.999Z</time>
      </trkpt>
      <trkpt lat="49.47287" lon="3.70925">
        <ele>173.08</ele>
        <time>2021-10-18T12:52:09.724Z</time>
      </trkpt>
      <trkpt lat="49.47292" lon="3.70941">
        <ele>175.75</ele>
        <time>2021-10-18T12:52:19.360Z</time>
      </trkpt>
      <trkpt lat="49.47295" lon="3.70958">
        <ele>174.03</ele>
        <time>2021-10-18T12:52:28.663Z</time>
      </trkpt>
      <trkpt lat="49.47297" lon="3.70977">
        <ele>175.66</ele>
        <time>2021-10-18T12:52:38.517Z</time>
      </trkpt>
      <trkpt lat="49.473" lon="3.70994">
        <ele>172.96</ele>
        <time>2021-10-18T12:52:48.536Z</time>
      </trkpt>
      <trkpt lat="49.47301" lon="3.7101">
        <ele>174.46</ele>
        <time>2021-10-18T12:52:58.279Z</time>
      </trkpt>
      <trkpt lat="49.47302" lon="3.71027">
        <ele>178.05</ele>
        <time>2021-10-18T12:53:07.617Z</time>
      </trkpt>
      <trkpt lat="49.47302" lon="3.71045">
        <ele>176.63</ele>
        <time>2021-10-18T12:53:16.898Z</time>
      </trkpt>
      <trkpt lat="49.47302" lon="3.71063">
        <ele>176.31</ele>
        <time>2021-10-18T12:53:26.183Z</time>
      </trkpt>
      <trkpt lat="49.47302" lon="3.71081">
        <ele>177.54</ele>
        <time>2021-10-18T12:53:35.402Z</time>
      </trkpt>
      <trkpt lat="49.47307" lon="3.71097">
        <ele>180.51</ele>
        <time>2021-10-18T12:53:45.376Z</time>
      </trkpt>
      <trkpt lat="49.4731" lon="3.71112">
        <ele>180.41</ele>
        <time>2021-10-18T12:53:54.711Z</time>
      </trkpt>
      <trkpt lat="49.47312" lon="3.71134">
        <ele>181.6</ele>
        <time>2021-10-18T12:54:03.999Z</time>
      </trkpt>
      <trkpt lat="49.47316" lon="3.71152">
        <ele>176.24</ele>
        <time>2021-10-18T12:54:13.537Z</time>
      </trkpt>
      <trkpt lat="49.47319" lon="3.71164">
        <ele>179.62</ele>
        <time>2021-10-18T12:54:22.626Z</time>
      </trkpt>
      <trkpt lat="49.47324" lon="3.71179">
        <ele>176.84</ele>
        <time>2021-10-18T12:54:31.999Z</time>
      </trkpt>
      <trkpt lat="49.47327" lon="3.71191">
        <ele>175.99</ele>
        <time>2021-10-18T12:54:41.475Z</time>
      </trkpt>
      <trkpt lat="49.47327" lon="3.71202">
        <ele>174.05</ele>
        <time>2021-10-18T12:54:51.239Z</time>
      </trkpt>
      <trkpt lat="49.47329" lon="3.71217">
        <ele>174.41</ele>
        <time>2021-10-18T12:55:00.677Z</time>
      </trkpt>
      <trkpt lat="49.47334" lon="3.71237">
        <ele>174.94</ele>
        <time>2021-10-18T12:55:10.616Z</time>
      </trkpt>
      <trkpt lat="49.47344" lon="3.7125">
        <ele>175.43</ele>
        <time>2021-10-18T12:55:19.807Z</time>
      </trkpt>
      <trkpt lat="49.47357" lon="3.71266">
        <ele>178.18</ele>
        <time>2021-10-18T12:55:28.999Z</time>
      </trkpt>
      <trkpt lat="49.47368" lon="3.71276">
        <ele>180.71</ele>
        <time>2021-10-18T12:55:38.578Z</time>
      </trkpt>
      <trkpt lat="49.47377" lon="3.71286">
        <ele>182.01</ele>
        <time>2021-10-18T12:55:47.826Z</time>
      </trkpt>
      <trkpt lat="49.47386" lon="3.71299">
        <ele>182.57</ele>
        <time>2021-10-18T12:55:57.368Z</time>
      </trkpt>
      <trkpt lat="49.47395" lon="3.71315">
        <ele>181.96</ele>
        <time>2021-10-18T12:56:07.364Z</time>
      </trkpt>
      <trkpt lat="49.47402" lon="3.71323">
        <ele>181.49</ele>
        <time>2021-10-18T12:56:16.441Z</time>
      </trkpt>
      <trkpt lat="49.47413" lon="3.71325">
        <ele>182.2</ele>
        <time>2021-10-18T12:56:26.402Z</time>
      </trkpt>
      <trkpt lat="49.47423" lon="3.71327">
        <ele>183.79</ele>
        <time>2021-10-18T12:56:35.422Z</time>
      </trkpt>
      <trkpt lat="49.47431" lon="3.71337">
        <ele>183.53</ele>
        <time>2021-10-18T12:56:45.284Z</time>
      </trkpt>
      <trkpt lat="49.47434" lon="3.71346">
        <ele>180.15</ele>
        <time>2021-10-18T12:56:54.416Z</time>
      </trkpt>
      <trkpt lat="49.47437" lon="3.71362">
        <ele>185.26</ele>
        <time>2021-10-18T12:57:04.459Z</time>
      </trkpt>
      <trkpt lat="49.4744" lon="3.71377">
        <ele>183.01</ele>
        <time>2021-10-18T12:57:13.476Z</time>
      </trkpt>
      <trkpt lat="49.47441" lon="3.71394">
        <ele>179.27</ele>
        <time>2021-10-18T12:57:22.481Z</time>
      </trkpt>
      <trkpt lat="49.47444" lon="3.7141">
        <ele>183.87</ele>
        <time>2021-10-18T12:57:32.037Z</time>
      </trkpt>
      <trkpt lat="49.47451" lon="3.71423">
        <ele>183.75</ele>
        <time>2021-10-18T12:57:41.419Z</time>
      </trkpt>
      <trkpt lat="49.47463" lon="3.71431">
        <ele>182.4</ele>
        <time>2021-10-18T12:57:51.258Z</time>
      </trkpt>
      <trkpt lat="49.47471" lon="3.71444">
        <ele>183.44</ele>
        <time>2021-10-18T12:58:01.383Z</time>
      </trkpt>
      <trkpt lat="49.47476" lon="3.71464">
        <ele>185.44</ele>
        <time>2021-10-18T12:58:10.999Z</time>
      </trkpt>
      <trkpt lat="49.47478" lon="3.7148">
        <ele>184.66</ele>
        <time>2021-10-18T12:58:20.182Z</time>
      </trkpt>
      <trkpt lat="49.47479" lon="3.71495">
        <ele>186.47</ele>
        <time>2021-10-18T12:58:29.481Z</time>
      </trkpt>
      <trkpt lat="49.4748" lon="3.71511">
        <ele>186.3</ele>
        <time>2021-10-18T12:58:38.683Z</time>
      </trkpt>
      <trkpt lat="49.47476" lon="3.71525">
        <ele>187.77</ele>
        <time>2021-10-18T12:58:48.675Z</time>
      </trkpt>
      <trkpt lat="49.47475" lon="3.71529">
        <ele>186.28</ele>
        <time>2021-10-18T12:58:57.999Z</time>
      </trkpt>
      <trkpt lat="49.47475" lon="3.71527">
        <ele>187.92</ele>
        <time>2021-10-18T12:59:09.999Z</time>
      </trkpt>
      <trkpt lat="49.47476" lon="3.71525">
        <ele>188.38</ele>
        <time>2021-10-18T12:59:19.999Z</time>
      </trkpt>
      <trkpt lat="49.47479" lon="3.71516">
        <ele>192.01</ele>
        <time>2021-10-18T12:59:29.999Z</time>
      </trkpt>
      <trkpt lat="49.47476" lon="3.71518">
        <ele>191.6</ele>
        <time>2021-10-18T12:59:39.999Z</time>
      </trkpt>
      <trkpt lat="49.47475" lon="3.71519">
        <ele>192.96</ele>
        <time>2021-10-18T12:59:50.260Z</time>
      </trkpt>
      <trkpt lat="49.47479" lon="3.71535">
        <ele>188.96</ele>
        <time>2021-10-18T12:59:59.664Z</time>
      </trkpt>
      <trkpt lat="49.47482" lon="3.71561">
        <ele>188.87</ele>
        <time>2021-10-18T13:00:08.916Z</time>
      </trkpt>
      <trkpt lat="49.47482" lon="3.7158">
        <ele>186.24</ele>
        <time>2021-10-18T13:00:18.264Z</time>
      </trkpt>
      <trkpt lat="49.47481" lon="3.71595">
        <ele>184.38</ele>
        <time>2021-10-18T13:00:27.748Z</time>
      </trkpt>
      <trkpt lat="49.47475" lon="3.71608">
        <ele>187.26</ele>
        <time>2021-10-18T13:00:37.279Z</time>
      </trkpt>
      <trkpt lat="49.47475" lon="3.71624">
        <ele>184.78</ele>
        <time>2021-10-18T13:00:46.503Z</time>
      </trkpt>
      <trkpt lat="49.47474" lon="3.71634">
        <ele>183.39</ele>
        <time>2021-10-18T13:00:55.999Z</time>
      </trkpt>
      <trkpt lat="49.47475" lon="3.71634">
        <ele>183.56</ele>
        <time>2021-10-18T13:01:11.999Z</time>
      </trkpt>
      <trkpt lat="49.47474" lon="3.71642">
        <ele>182.76</ele>
        <time>2021-10-18T13:01:21.999Z</time>
      </trkpt>
      <trkpt lat="49.47472" lon="3.71642">
        <ele>182.03</ele>
        <time>2021-10-18T13:01:31.999Z</time>
      </trkpt>
      <trkpt lat="49.47472" lon="3.71641">
        <ele>181.83</ele>
        <time>2021-10-18T13:01:57.999Z</time>
      </trkpt>
      <trkpt lat="49.47471" lon="3.7164">
        <ele>183.2</ele>
        <time>2021-10-18T13:02:07.999Z</time>
      </trkpt>
      <trkpt lat="49.47469" lon="3.71635">
        <ele>182.59</ele>
        <time>2021-10-18T13:02:17.999Z</time>
      </trkpt>
      <trkpt lat="49.47465" lon="3.71628">
        <ele>184.04</ele>
        <time>2021-10-18T13:02:27.999Z</time>
      </trkpt>
      <trkpt lat="49.47465" lon="3.71632">
        <ele>185.87</ele>
        <time>2021-10-18T13:02:37.999Z</time>
      </trkpt>
      <trkpt lat="49.47466" lon="3.71633">
        <ele>186.75</ele>
        <time>2021-10-18T13:02:47.999Z</time>
      </trkpt>
      <trkpt lat="49.47466" lon="3.71632">
        <ele>191.41</ele>
        <time>2021-10-18T13:03:06.999Z</time>
      </trkpt>
      <trkpt lat="49.47466" lon="3.71628">
        <ele>191.88</ele>
        <time>2021-10-18T13:03:16.999Z</time>
      </trkpt>
      <trkpt lat="49.47468" lon="3.71628">
        <ele>192.54</ele>
        <time>2021-10-18T13:03:26.999Z</time>
      </trkpt>
      <trkpt lat="49.47471" lon="3.7163">
        <ele>193.97</ele>
        <time>2021-10-18T13:03:36.999Z</time>
      </trkpt>
      <trkpt lat="49.4747" lon="3.71631">
        <ele>191.59</ele>
        <time>2021-10-18T13:03:49.999Z</time>
      </trkpt>
      <trkpt lat="49.47469" lon="3.7163">
        <ele>190.06</ele>
        <time>2021-10-18T13:03:59.999Z</time>
      </trkpt>
      <trkpt lat="49.47466" lon="3.71635">
        <ele>192.49</ele>
        <time>2021-10-18T13:04:09.999Z</time>
      </trkpt>
      <trkpt lat="49.47465" lon="3.71632">
        <ele>193.98</ele>
        <time>2021-10-18T13:04:19.999Z</time>
      </trkpt>
      <trkpt lat="49.4746" lon="3.7163">
        <ele>195.09</ele>
        <time>2021-10-18T13:04:29.999Z</time>
      </trkpt>
      <trkpt lat="49.47473" lon="3.71639">
        <ele>192.56</ele>
        <time>2021-10-18T13:04:39.999Z</time>
      </trkpt>
      <trkpt lat="49.47472" lon="3.71638">
        <ele>193.31</ele>
        <time>2021-10-18T13:04:49.999Z</time>
      </trkpt>
      <trkpt lat="49.47473" lon="3.71636">
        <ele>192.41</ele>
        <time>2021-10-18T13:04:59.999Z</time>
      </trkpt>
      <trkpt lat="49.47472" lon="3.71635">
        <ele>191.61</ele>
        <time>2021-10-18T13:05:11.999Z</time>
      </trkpt>
      <trkpt lat="49.47462" lon="3.71646">
        <ele>190.16</ele>
        <time>2021-10-18T13:05:21.999Z</time>
      </trkpt>
      <trkpt lat="49.47456" lon="3.71647">
        <ele>189.49</ele>
        <time>2021-10-18T13:05:31.422Z</time>
      </trkpt>
      <trkpt lat="49.47447" lon="3.71655">
        <ele>188.03</ele>
        <time>2021-10-18T13:05:40.762Z</time>
      </trkpt>
      <trkpt lat="49.47445" lon="3.71662">
        <ele>187.45</ele>
        <time>2021-10-18T13:05:50.403Z</time>
      </trkpt>
      <trkpt lat="49.47433" lon="3.71669">
        <ele>186.16</ele>
        <time>2021-10-18T13:05:59.836Z</time>
      </trkpt>
      <trkpt lat="49.47421" lon="3.71682">
        <ele>186.2</ele>
        <time>2021-10-18T13:06:09.576Z</time>
      </trkpt>
      <trkpt lat="49.4741" lon="3.71693">
        <ele>185.81</ele>
        <time>2021-10-18T13:06:18.999Z</time>
      </trkpt>
      <trkpt lat="49.47398" lon="3.717">
        <ele>186.44</ele>
        <time>2021-10-18T13:06:28.366Z</time>
      </trkpt>
      <trkpt lat="49.47385" lon="3.71707">
        <ele>188.78</ele>
        <time>2021-10-18T13:06:37.721Z</time>
      </trkpt>
      <trkpt lat="49.47375" lon="3.71714">
        <ele>187.39</ele>
        <time>2021-10-18T13:06:47.275Z</time>
      </trkpt>
      <trkpt lat="49.47367" lon="3.71719">
        <ele>187.84</ele>
        <time>2021-10-18T13:06:56.321Z</time>
      </trkpt>
      <trkpt lat="49.47356" lon="3.71724">
        <ele>190.02</ele>
        <time>2021-10-18T13:07:05.998Z</time>
      </trkpt>
      <trkpt lat="49.47344" lon="3.71732">
        <ele>185.92</ele>
        <time>2021-10-18T13:07:15.581Z</time>
      </trkpt>
      <trkpt lat="49.47332" lon="3.71739">
        <ele>185.66</ele>
        <time>2021-10-18T13:07:25.365Z</time>
      </trkpt>
      <trkpt lat="49.47323" lon="3.71745">
        <ele>182.79</ele>
        <time>2021-10-18T13:07:34.456Z</time>
      </trkpt>
      <trkpt lat="49.47312" lon="3.71752">
        <ele>183.72</ele>
        <time>2021-10-18T13:07:44.246Z</time>
      </trkpt>
      <trkpt lat="49.47303" lon="3.71756">
        <ele>181.96</ele>
        <time>2021-10-18T13:07:53.372Z</time>
      </trkpt>
      <trkpt lat="49.47291" lon="3.7176">
        <ele>180.61</ele>
        <time>2021-10-18T13:08:02.999Z</time>
      </trkpt>
      <trkpt lat="49.47281" lon="3.71764">
        <ele>177.92</ele>
        <time>2021-10-18T13:08:12.117Z</time>
      </trkpt>
      <trkpt lat="49.47268" lon="3.71768">
        <ele>175.87</ele>
        <time>2021-10-18T13:08:21.120Z</time>
      </trkpt>
      <trkpt lat="49.47255" lon="3.71773">
        <ele>171.53</ele>
        <time>2021-10-18T13:08:30.360Z</time>
      </trkpt>
      <trkpt lat="49.47244" lon="3.71777">
        <ele>174.21</ele>
        <time>2021-10-18T13:08:39.597Z</time>
      </trkpt>
      <trkpt lat="49.47233" lon="3.71782">
        <ele>172.73</ele>
        <time>2021-10-18T13:08:49.219Z</time>
      </trkpt>
      <trkpt lat="49.47224" lon="3.71787">
        <ele>170.85</ele>
        <time>2021-10-18T13:08:59.370Z</time>
      </trkpt>
      <trkpt lat="49.47212" lon="3.71792">
        <ele>166.33</ele>
        <time>2021-10-18T13:09:09.281Z</time>
      </trkpt>
      <trkpt lat="49.472" lon="3.71798">
        <ele>167.38</ele>
        <time>2021-10-18T13:09:18.294Z</time>
      </trkpt>
      <trkpt lat="49.47188" lon="3.71805">
        <ele>167.8</ele>
        <time>2021-10-18T13:09:27.700Z</time>
      </trkpt>
      <trkpt lat="49.47173" lon="3.7181">
        <ele>164.58</ele>
        <time>2021-10-18T13:09:37.282Z</time>
      </trkpt>
      <trkpt lat="49.47161" lon="3.71813">
        <ele>166.43</ele>
        <time>2021-10-18T13:09:46.577Z</time>
      </trkpt>
      <trkpt lat="49.47148" lon="3.71815">
        <ele>168.84</ele>
        <time>2021-10-18T13:09:56.102Z</time>
      </trkpt>
      <trkpt lat="49.47135" lon="3.7182">
        <ele>166.26</ele>
        <time>2021-10-18T13:10:05.103Z</time>
      </trkpt>
      <trkpt lat="49.47123" lon="3.71821">
        <ele>167.12</ele>
        <time>2021-10-18T13:10:14.375Z</time>
      </trkpt>
      <trkpt lat="49.4711" lon="3.71822">
        <ele>164.66</ele>
        <time>2021-10-18T13:10:24.457Z</time>
      </trkpt>
      <trkpt lat="49.47101" lon="3.71828">
        <ele>165.39</ele>
        <time>2021-10-18T13:10:33.999Z</time>
      </trkpt>
      <trkpt lat="49.47096" lon="3.71833">
        <ele>167.23</ele>
        <time>2021-10-18T13:10:43.403Z</time>
      </trkpt>
      <trkpt lat="49.47089" lon="3.71839">
        <ele>166.94</ele>
        <time>2021-10-18T13:10:53.372Z</time>
      </trkpt>
      <trkpt lat="49.47081" lon="3.71841">
        <ele>168.53</ele>
        <time>2021-10-18T13:11:02.543Z</time>
      </trkpt>
      <trkpt lat="49.4707" lon="3.71844">
        <ele>169.34</ele>
        <time>2021-10-18T13:11:11.999Z</time>
      </trkpt>
      <trkpt lat="49.47058" lon="3.71848">
        <ele>171.19</ele>
        <time>2021-10-18T13:11:21.437Z</time>
      </trkpt>
      <trkpt lat="49.47044" lon="3.71852">
        <ele>170.6</ele>
        <time>2021-10-18T13:11:30.643Z</time>
      </trkpt>
      <trkpt lat="49.47031" lon="3.71859">
        <ele>172.37</ele>
        <time>2021-10-18T13:11:40.419Z</time>
      </trkpt>
      <trkpt lat="49.4702" lon="3.71873">
        <ele>171.06</ele>
        <time>2021-10-18T13:11:49.943Z</time>
      </trkpt>
      <trkpt lat="49.4701" lon="3.71887">
        <ele>170.39</ele>
        <time>2021-10-18T13:11:59.639Z</time>
      </trkpt>
      <trkpt lat="49.47003" lon="3.71898">
        <ele>171.59</ele>
        <time>2021-10-18T13:12:09.046Z</time>
      </trkpt>
      <trkpt lat="49.46994" lon="3.71907">
        <ele>170.86</ele>
        <time>2021-10-18T13:12:18.195Z</time>
      </trkpt>
      <trkpt lat="49.46986" lon="3.71915">
        <ele>170.35</ele>
        <time>2021-10-18T13:12:27.244Z</time>
      </trkpt>
      <trkpt lat="49.46976" lon="3.71923">
        <ele>168.32</ele>
        <time>2021-10-18T13:12:36.277Z</time>
      </trkpt>
      <trkpt lat="49.46964" lon="3.71929">
        <ele>169.24</ele>
        <time>2021-10-18T13:12:45.700Z</time>
      </trkpt>
      <trkpt lat="49.46963" lon="3.71937">
        <ele>167.94</ele>
        <time>2021-10-18T13:12:54.999Z</time>
      </trkpt>
      <trkpt lat="49.46954" lon="3.71942">
        <ele>164.02</ele>
        <time>2021-10-18T13:13:04.103Z</time>
      </trkpt>
      <trkpt lat="49.46944" lon="3.71949">
        <ele>165.02</ele>
        <time>2021-10-18T13:13:13.559Z</time>
      </trkpt>
      <trkpt lat="49.46938" lon="3.71961">
        <ele>163.61</ele>
        <time>2021-10-18T13:13:23.043Z</time>
      </trkpt>
      <trkpt lat="49.46929" lon="3.7198">
        <ele>161.15</ele>
        <time>2021-10-18T13:13:32.458Z</time>
      </trkpt>
      <trkpt lat="49.46921" lon="3.72">
        <ele>161.97</ele>
        <time>2021-10-18T13:13:42.422Z</time>
      </trkpt>
      <trkpt lat="49.46914" lon="3.72014">
        <ele>162.01</ele>
        <time>2021-10-18T13:13:51.495Z</time>
      </trkpt>
      <trkpt lat="49.46905" lon="3.72027">
        <ele>160.28</ele>
        <time>2021-10-18T13:14:00.586Z</time>
      </trkpt>
      <trkpt lat="49.46896" lon="3.72037">
        <ele>160.31</ele>
        <time>2021-10-18T13:14:09.604Z</time>
      </trkpt>
      <trkpt lat="49.46888" lon="3.7205">
        <ele>160.07</ele>
        <time>2021-10-18T13:14:19.999Z</time>
      </trkpt>
      <trkpt lat="49.46882" lon="3.72065">
        <ele>159.6</ele>
        <time>2021-10-18T13:14:29.014Z</time>
      </trkpt>
      <trkpt lat="49.4688" lon="3.72086">
        <ele>157.43</ele>
        <time>2021-10-18T13:14:38.999Z</time>
      </trkpt>
      <trkpt lat="49.4688" lon="3.72108">
        <ele>158.3</ele>
        <time>2021-10-18T13:14:48.999Z</time>
      </trkpt>
      <trkpt lat="49.46884" lon="3.72129">
        <ele>153.52</ele>
        <time>2021-10-18T13:14:58.032Z</time>
      </trkpt>
      <trkpt lat="49.46885" lon="3.72151">
        <ele>156.41</ele>
        <time>2021-10-18T13:15:07.656Z</time>
      </trkpt>
      <trkpt lat="49.46884" lon="3.72174">
        <ele>154.69</ele>
        <time>2021-10-18T13:15:16.999Z</time>
      </trkpt>
      <trkpt lat="49.46887" lon="3.72201">
        <ele>152.78</ele>
        <time>2021-10-18T13:15:26.818Z</time>
      </trkpt>
      <trkpt lat="49.4689" lon="3.72218">
        <ele>152.35</ele>
        <time>2021-10-18T13:15:35.999Z</time>
      </trkpt>
      <trkpt lat="49.46895" lon="3.72231">
        <ele>151.39</ele>
        <time>2021-10-18T13:15:45.539Z</time>
      </trkpt>
      <trkpt lat="49.46904" lon="3.7224">
        <ele>152.55</ele>
        <time>2021-10-18T13:15:54.590Z</time>
      </trkpt>
      <trkpt lat="49.46913" lon="3.72251">
        <ele>150.91</ele>
        <time>2021-10-18T13:16:03.996Z</time>
      </trkpt>
      <trkpt lat="49.46916" lon="3.72256">
        <ele>152.48</ele>
        <time>2021-10-18T13:16:13.999Z</time>
      </trkpt>
      <trkpt lat="49.46924" lon="3.72266">
        <ele>151.15</ele>
        <time>2021-10-18T13:16:23.850Z</time>
      </trkpt>
      <trkpt lat="49.46931" lon="3.72279">
        <ele>148.75</ele>
        <time>2021-10-18T13:16:33.693Z</time>
      </trkpt>
      <trkpt lat="49.46937" lon="3.72287">
        <ele>151.15</ele>
        <time>2021-10-18T13:16:43.999Z</time>
      </trkpt>
      <trkpt lat="49.46942" lon="3.72302">
        <ele>146.59</ele>
        <time>2021-10-18T13:16:53.454Z</time>
      </trkpt>
      <trkpt lat="49.4694" lon="3.72328">
        <ele>145.66</ele>
        <time>2021-10-18T13:17:02.810Z</time>
      </trkpt>
      <trkpt lat="49.46938" lon="3.7235">
        <ele>143.19</ele>
        <time>2021-10-18T13:17:12.991Z</time>
      </trkpt>
      <trkpt lat="49.46937" lon="3.72369">
        <ele>144.18</ele>
        <time>2021-10-18T13:17:22.076Z</time>
      </trkpt>
      <trkpt lat="49.46934" lon="3.72391">
        <ele>143.28</ele>
        <time>2021-10-18T13:17:31.890Z</time>
      </trkpt>
      <trkpt lat="49.46929" lon="3.72409">
        <ele>143.44</ele>
        <time>2021-10-18T13:17:41.078Z</time>
      </trkpt>
      <trkpt lat="49.46927" lon="3.72427">
        <ele>142.12</ele>
        <time>2021-10-18T13:17:50.475Z</time>
      </trkpt>
      <trkpt lat="49.46927" lon="3.72444">
        <ele>142.08</ele>
        <time>2021-10-18T13:18:00.077Z</time>
      </trkpt>
      <trkpt lat="49.4693" lon="3.72457">
        <ele>142.07</ele>
        <time>2021-10-18T13:18:09.118Z</time>
      </trkpt>
      <trkpt lat="49.46935" lon="3.72467">
        <ele>126.64</ele>
        <time>2021-10-18T13:18:19.114Z</time>
      </trkpt>
      <trkpt lat="49.46941" lon="3.7248">
        <ele>126.62</ele>
        <time>2021-10-18T13:18:28.660Z</time>
      </trkpt>
      <trkpt lat="49.46946" lon="3.72494">
        <ele>124.03</ele>
        <time>2021-10-18T13:18:37.900Z</time>
      </trkpt>
      <trkpt lat="49.46948" lon="3.72514">
        <ele>123.26</ele>
        <time>2021-10-18T13:18:47.131Z</time>
      </trkpt>
      <trkpt lat="49.4695" lon="3.72532">
        <ele>122.83</ele>
        <time>2021-10-18T13:18:56.999Z</time>
      </trkpt>
      <trkpt lat="49.46947" lon="3.72534">
        <ele>122.61</ele>
        <time>2021-10-18T13:19:06.219Z</time>
      </trkpt>
      <trkpt lat="49.46957" lon="3.72541">
        <ele>122.41</ele>
        <time>2021-10-18T13:19:15.711Z</time>
      </trkpt>
      <trkpt lat="49.46964" lon="3.72544">
        <ele>122.45</ele>
        <time>2021-10-18T13:19:24.999Z</time>
      </trkpt>
      <trkpt lat="49.46958" lon="3.72549">
        <ele>122.41</ele>
        <time>2021-10-18T13:19:34.751Z</time>
      </trkpt>
      <trkpt lat="49.46961" lon="3.72563">
        <ele>122.5</ele>
        <time>2021-10-18T13:19:44.094Z</time>
      </trkpt>
      <trkpt lat="49.46958" lon="3.72575">
        <ele>122.71</ele>
        <time>2021-10-18T13:19:53.896Z</time>
      </trkpt>
      <trkpt lat="49.46953" lon="3.72593">
        <ele>122.79</ele>
        <time>2021-10-18T13:20:03.222Z</time>
      </trkpt>
      <trkpt lat="49.4694" lon="3.72613">
        <ele>122.8</ele>
        <time>2021-10-18T13:20:12.594Z</time>
      </trkpt>
      <trkpt lat="49.46928" lon="3.72624">
        <ele>122.7</ele>
        <time>2021-10-18T13:20:21.827Z</time>
      </trkpt>
      <trkpt lat="49.46917" lon="3.72632">
        <ele>122.74</ele>
        <time>2021-10-18T13:20:31.999Z</time>
      </trkpt>
      <trkpt lat="49.46906" lon="3.72642">
        <ele>122.76</ele>
        <time>2021-10-18T13:20:41.571Z</time>
      </trkpt>
      <trkpt lat="49.46895" lon="3.72646">
        <ele>122.77</ele>
        <time>2021-10-18T13:20:50.694Z</time>
      </trkpt>
      <trkpt lat="49.46885" lon="3.72653">
        <ele>122.77</ele>
        <time>2021-10-18T13:20:59.999Z</time>
      </trkpt>
      <trkpt lat="49.46875" lon="3.72661">
        <ele>119.8</ele>
        <time>2021-10-18T13:21:09.116Z</time>
      </trkpt>
      <trkpt lat="49.46866" lon="3.7267">
        <ele>117.75</ele>
        <time>2021-10-18T13:21:18.719Z</time>
      </trkpt>
      <trkpt lat="49.46857" lon="3.72679">
        <ele>116.45</ele>
        <time>2021-10-18T13:21:27.872Z</time>
      </trkpt>
      <trkpt lat="49.46846" lon="3.72686">
        <ele>116.43</ele>
        <time>2021-10-18T13:21:37.999Z</time>
      </trkpt>
      <trkpt lat="49.46835" lon="3.727">
        <ele>115.86</ele>
        <time>2021-10-18T13:21:47.819Z</time>
      </trkpt>
      <trkpt lat="49.46825" lon="3.72707">
        <ele>115.84</ele>
        <time>2021-10-18T13:21:57.012Z</time>
      </trkpt>
      <trkpt lat="49.46815" lon="3.72715">
        <ele>115.65</ele>
        <time>2021-10-18T13:22:06.999Z</time>
      </trkpt>
      <trkpt lat="49.46804" lon="3.72726">
        <ele>114.88</ele>
        <time>2021-10-18T13:22:16.093Z</time>
      </trkpt>
      <trkpt lat="49.46795" lon="3.7274">
        <ele>114.98</ele>
        <time>2021-10-18T13:22:25.690Z</time>
      </trkpt>
      <trkpt lat="49.46794" lon="3.72754">
        <ele>114.68</ele>
        <time>2021-10-18T13:22:35.032Z</time>
      </trkpt>
      <trkpt lat="49.468" lon="3.72769">
        <ele>114.65</ele>
        <time>2021-10-18T13:22:44.517Z</time>
      </trkpt>
      <trkpt lat="49.46806" lon="3.72781">
        <ele>115.47</ele>
        <time>2021-10-18T13:22:53.758Z</time>
      </trkpt>
      <trkpt lat="49.46813" lon="3.72795">
        <ele>115.75</ele>
        <time>2021-10-18T13:23:03.177Z</time>
      </trkpt>
      <trkpt lat="49.46821" lon="3.72811">
        <ele>115.94</ele>
        <time>2021-10-18T13:23:13.222Z</time>
      </trkpt>
      <trkpt lat="49.46823" lon="3.72826">
        <ele>116.34</ele>
        <time>2021-10-18T13:23:22.715Z</time>
      </trkpt>
      <trkpt lat="49.46825" lon="3.72842">
        <ele>116.53</ele>
        <time>2021-10-18T13:23:32.999Z</time>
      </trkpt>
      <trkpt lat="49.4683" lon="3.72857">
        <ele>116.46</ele>
        <time>2021-10-18T13:23:42.937Z</time>
      </trkpt>
      <trkpt lat="49.46833" lon="3.72876">
        <ele>116.62</ele>
        <time>2021-10-18T13:23:52.973Z</time>
      </trkpt>
      <trkpt lat="49.46836" lon="3.72891">
        <ele>116.75</ele>
        <time>2021-10-18T13:24:01.999Z</time>
      </trkpt>
      <trkpt lat="49.46844" lon="3.72906">
        <ele>116.79</ele>
        <time>2021-10-18T13:24:11.472Z</time>
      </trkpt>
      <trkpt lat="49.46852" lon="3.72917">
        <ele>116.89</ele>
        <time>2021-10-18T13:24:20.475Z</time>
      </trkpt>
      <trkpt lat="49.46859" lon="3.72928">
        <ele>116.86</ele>
        <time>2021-10-18T13:24:29.552Z</time>
      </trkpt>
      <trkpt lat="49.46866" lon="3.72932">
        <ele>116.91</ele>
        <time>2021-10-18T13:24:38.644Z</time>
      </trkpt>
      <trkpt lat="49.46875" lon="3.72937">
        <ele>111.3</ele>
        <time>2021-10-18T13:24:48.073Z</time>
      </trkpt>
      <trkpt lat="49.46884" lon="3.72945">
        <ele>113.86</ele>
        <time>2021-10-18T13:24:57.285Z</time>
      </trkpt>
      <trkpt lat="49.46894" lon="3.72954">
        <ele>116.08</ele>
        <time>2021-10-18T13:25:06.289Z</time>
      </trkpt>
      <trkpt lat="49.46903" lon="3.72964">
        <ele>117.6</ele>
        <time>2021-10-18T13:25:15.999Z</time>
      </trkpt>
      <trkpt lat="49.46911" lon="3.72977">
        <ele>119.85</ele>
        <time>2021-10-18T13:25:25.365Z</time>
      </trkpt>
      <trkpt lat="49.4692" lon="3.72989">
        <ele>120.06</ele>
        <time>2021-10-18T13:25:34.692Z</time>
      </trkpt>
      <trkpt lat="49.46929" lon="3.73">
        <ele>121.25</ele>
        <time>2021-10-18T13:25:44.347Z</time>
      </trkpt>
      <trkpt lat="49.46935" lon="3.73011">
        <ele>120.19</ele>
        <time>2021-10-18T13:25:53.469Z</time>
      </trkpt>
      <trkpt lat="49.4694" lon="3.73024">
        <ele>119.53</ele>
        <time>2021-10-18T13:26:03.531Z</time>
      </trkpt>
      <trkpt lat="49.46946" lon="3.73036">
        <ele>118.54</ele>
        <time>2021-10-18T13:26:12.999Z</time>
      </trkpt>
      <trkpt lat="49.46953" lon="3.73051">
        <ele>116.43</ele>
        <time>2021-10-18T13:26:22.365Z</time>
      </trkpt>
      <trkpt lat="49.46957" lon="3.73065">
        <ele>113.56</ele>
        <time>2021-10-18T13:26:31.451Z</time>
      </trkpt>
      <trkpt lat="49.46961" lon="3.73078">
        <ele>108.92</ele>
        <time>2021-10-18T13:26:40.963Z</time>
      </trkpt>
      <trkpt lat="49.4697" lon="3.7309">
        <ele>111.81</ele>
        <time>2021-10-18T13:26:50.533Z</time>
      </trkpt>
      <trkpt lat="49.46981" lon="3.73105">
        <ele>106.42</ele>
        <time>2021-10-18T13:27:00.608Z</time>
      </trkpt>
      <trkpt lat="49.46985" lon="3.73119">
        <ele>104.54</ele>
        <time>2021-10-18T13:27:10.047Z</time>
      </trkpt>
      <trkpt lat="49.46988" lon="3.73132">
        <ele>104.79</ele>
        <time>2021-10-18T13:27:19.226Z</time>
      </trkpt>
      <trkpt lat="49.46992" lon="3.73146">
        <ele>105.24</ele>
        <time>2021-10-18T13:27:28.270Z</time>
      </trkpt>
      <trkpt lat="49.46999" lon="3.73159">
        <ele>104.63</ele>
        <time>2021-10-18T13:27:37.502Z</time>
      </trkpt>
      <trkpt lat="49.47014" lon="3.73171">
        <ele>102.56</ele>
        <time>2021-10-18T13:27:47.000Z</time>
      </trkpt>
      <trkpt lat="49.47026" lon="3.73175">
        <ele>103.79</ele>
        <time>2021-10-18T13:27:56.524Z</time>
      </trkpt>
      <trkpt lat="49.47034" lon="3.73188">
        <ele>106.76</ele>
        <time>2021-10-18T13:28:06.609Z</time>
      </trkpt>
      <trkpt lat="49.47035" lon="3.73207">
        <ele>106.17</ele>
        <time>2021-10-18T13:28:16.026Z</time>
      </trkpt>
      <trkpt lat="49.47037" lon="3.73222">
        <ele>103.84</ele>
        <time>2021-10-18T13:28:26.000Z</time>
      </trkpt>
      <trkpt lat="49.47047" lon="3.73236">
        <ele>103.01</ele>
        <time>2021-10-18T13:28:35.717Z</time>
      </trkpt>
      <trkpt lat="49.47063" lon="3.73248">
        <ele>100.11</ele>
        <time>2021-10-18T13:28:44.883Z</time>
      </trkpt>
      <trkpt lat="49.47071" lon="3.73256">
        <ele>98.68</ele>
        <time>2021-10-18T13:28:54.000Z</time>
      </trkpt>
      <trkpt lat="49.47074" lon="3.73264">
        <ele>95.96</ele>
        <time>2021-10-18T13:29:03.442Z</time>
      </trkpt>
      <trkpt lat="49.47075" lon="3.73262">
        <ele>98.74</ele>
        <time>2021-10-18T13:29:13.000Z</time>
      </trkpt>
      <trkpt lat="49.47075" lon="3.7326">
        <ele>97.29</ele>
        <time>2021-10-18T13:29:28.000Z</time>
      </trkpt>
      <trkpt lat="49.47076" lon="3.73256">
        <ele>101.39</ele>
        <time>2021-10-18T13:29:38.000Z</time>
      </trkpt>
      <trkpt lat="49.47079" lon="3.7328">
        <ele>97.06</ele>
        <time>2021-10-18T13:29:48.000Z</time>
      </trkpt>
      <trkpt lat="49.47084" lon="3.73294">
        <ele>98.9</ele>
        <time>2021-10-18T13:29:57.288Z</time>
      </trkpt>
      <trkpt lat="49.47093" lon="3.73301">
        <ele>103.11</ele>
        <time>2021-10-18T13:30:06.670Z</time>
      </trkpt>
      <trkpt lat="49.47096" lon="3.73316">
        <ele>101.85</ele>
        <time>2021-10-18T13:30:16.225Z</time>
      </trkpt>
      <trkpt lat="49.471" lon="3.73336">
        <ele>101.31</ele>
        <time>2021-10-18T13:30:25.546Z</time>
      </trkpt>
      <trkpt lat="49.47103" lon="3.73348">
        <ele>100.67</ele>
        <time>2021-10-18T13:30:34.731Z</time>
      </trkpt>
      <trkpt lat="49.47104" lon="3.73356">
        <ele>99.58</ele>
        <time>2021-10-18T13:30:44.164Z</time>
      </trkpt>
      <trkpt lat="49.47107" lon="3.73367">
        <ele>102.56</ele>
        <time>2021-10-18T13:30:53.353Z</time>
      </trkpt>
      <trkpt lat="49.47109" lon="3.73378">
        <ele>102.38</ele>
        <time>2021-10-18T13:31:03.000Z</time>
      </trkpt>
      <trkpt lat="49.47115" lon="3.73395">
        <ele>104.11</ele>
        <time>2021-10-18T13:31:12.389Z</time>
      </trkpt>
      <trkpt lat="49.47125" lon="3.73405">
        <ele>102.83</ele>
        <time>2021-10-18T13:31:22.590Z</time>
      </trkpt>
      <trkpt lat="49.47135" lon="3.73411">
        <ele>101.81</ele>
        <time>2021-10-18T13:31:33.000Z</time>
      </trkpt>
      <trkpt lat="49.47148" lon="3.73428">
        <ele>98.31</ele>
        <time>2021-10-18T13:31:42.143Z</time>
      </trkpt>
      <trkpt lat="49.47157" lon="3.73435">
        <ele>100.13</ele>
        <time>2021-10-18T13:31:52.000Z</time>
      </trkpt>
      <trkpt lat="49.47165" lon="3.73436">
        <ele>98.47</ele>
        <time>2021-10-18T13:32:01.348Z</time>
      </trkpt>
      <trkpt lat="49.47173" lon="3.73441">
        <ele>101.57</ele>
        <time>2021-10-18T13:32:10.692Z</time>
      </trkpt>
      <trkpt lat="49.47179" lon="3.73448">
        <ele>101.79</ele>
        <time>2021-10-18T13:32:21.000Z</time>
      </trkpt>
      <trkpt lat="49.47194" lon="3.73454">
        <ele>106.69</ele>
        <time>2021-10-18T13:32:31.000Z</time>
      </trkpt>
      <trkpt lat="49.47208" lon="3.7345">
        <ele>109.69</ele>
        <time>2021-10-18T13:32:41.000Z</time>
      </trkpt>
      <trkpt lat="49.47216" lon="3.7345">
        <ele>111.91</ele>
        <time>2021-10-18T13:32:50.482Z</time>
      </trkpt>
      <trkpt lat="49.47226" lon="3.73456">
        <ele>116.99</ele>
        <time>2021-10-18T13:33:00.626Z</time>
      </trkpt>
      <trkpt lat="49.47231" lon="3.73462">
        <ele>114.07</ele>
        <time>2021-10-18T13:33:10.000Z</time>
      </trkpt>
      <trkpt lat="49.4723" lon="3.7347">
        <ele>115.93</ele>
        <time>2021-10-18T13:33:19.504Z</time>
      </trkpt>
      <trkpt lat="49.47232" lon="3.73478">
        <ele>113.4</ele>
        <time>2021-10-18T13:33:28.991Z</time>
      </trkpt>
      <trkpt lat="49.47241" lon="3.73489">
        <ele>118.42</ele>
        <time>2021-10-18T13:33:38.687Z</time>
      </trkpt>
      <trkpt lat="49.47248" lon="3.73505">
        <ele>117.29</ele>
        <time>2021-10-18T13:33:48.207Z</time>
      </trkpt>
      <trkpt lat="49.47253" lon="3.73514">
        <ele>120.43</ele>
        <time>2021-10-18T13:33:57.531Z</time>
      </trkpt>
      <trkpt lat="49.47261" lon="3.7352">
        <ele>122.82</ele>
        <time>2021-10-18T13:34:07.000Z</time>
      </trkpt>
      <trkpt lat="49.47267" lon="3.73526">
        <ele>128.28</ele>
        <time>2021-10-18T13:34:16.509Z</time>
      </trkpt>
      <trkpt lat="49.47271" lon="3.73534">
        <ele>126.29</ele>
        <time>2021-10-18T13:34:25.740Z</time>
      </trkpt>
      <trkpt lat="49.47287" lon="3.73548">
        <ele>128.47</ele>
        <time>2021-10-18T13:34:35.308Z</time>
      </trkpt>
      <trkpt lat="49.47297" lon="3.73558">
        <ele>130.25</ele>
        <time>2021-10-18T13:34:45.000Z</time>
      </trkpt>
      <trkpt lat="49.47307" lon="3.73576">
        <ele>132.73</ele>
        <time>2021-10-18T13:34:54.302Z</time>
      </trkpt>
      <trkpt lat="49.47308" lon="3.73586">
        <ele>137.17</ele>
        <time>2021-10-18T13:35:04.433Z</time>
      </trkpt>
      <trkpt lat="49.47309" lon="3.73589">
        <ele>138.4</ele>
        <time>2021-10-18T13:35:14.000Z</time>
      </trkpt>
      <trkpt lat="49.47316" lon="3.73596">
        <ele>139.98</ele>
        <time>2021-10-18T13:35:23.411Z</time>
      </trkpt>
      <trkpt lat="49.4732" lon="3.73607">
        <ele>141.23</ele>
        <time>2021-10-18T13:35:33.000Z</time>
      </trkpt>
      <trkpt lat="49.47328" lon="3.73617">
        <ele>141.25</ele>
        <time>2021-10-18T13:35:42.468Z</time>
      </trkpt>
      <trkpt lat="49.47336" lon="3.73626">
        <ele>144.24</ele>
        <time>2021-10-18T13:35:51.503Z</time>
      </trkpt>
      <trkpt lat="49.47344" lon="3.73634">
        <ele>145.97</ele>
        <time>2021-10-18T13:36:00.611Z</time>
      </trkpt>
      <trkpt lat="49.47352" lon="3.73642">
        <ele>146.86</ele>
        <time>2021-10-18T13:36:09.989Z</time>
      </trkpt>
      <trkpt lat="49.47361" lon="3.7365">
        <ele>149.78</ele>
        <time>2021-10-18T13:36:19.584Z</time>
      </trkpt>
      <trkpt lat="49.47368" lon="3.73659">
        <ele>149.95</ele>
        <time>2021-10-18T13:36:29.000Z</time>
      </trkpt>
      <trkpt lat="49.47376" lon="3.73667">
        <ele>147.25</ele>
        <time>2021-10-18T13:36:38.230Z</time>
      </trkpt>
      <trkpt lat="49.47382" lon="3.73675">
        <ele>148.26</ele>
        <time>2021-10-18T13:36:47.406Z</time>
      </trkpt>
      <trkpt lat="49.47383" lon="3.73688">
        <ele>149.89</ele>
        <time>2021-10-18T13:36:57.000Z</time>
      </trkpt>
      <trkpt lat="49.47381" lon="3.73704">
        <ele>145.74</ele>
        <time>2021-10-18T13:37:06.367Z</time>
      </trkpt>
      <trkpt lat="49.47386" lon="3.73714">
        <ele>148.87</ele>
        <time>2021-10-18T13:37:16.000Z</time>
      </trkpt>
      <trkpt lat="49.47394" lon="3.7372">
        <ele>144.68</ele>
        <time>2021-10-18T13:37:25.126Z</time>
      </trkpt>
      <trkpt lat="49.47402" lon="3.73721">
        <ele>142.23</ele>
        <time>2021-10-18T13:37:34.411Z</time>
      </trkpt>
      <trkpt lat="49.47408" lon="3.73729">
        <ele>140.55</ele>
        <time>2021-10-18T13:37:43.725Z</time>
      </trkpt>
      <trkpt lat="49.47416" lon="3.73736">
        <ele>138.97</ele>
        <time>2021-10-18T13:37:53.188Z</time>
      </trkpt>
      <trkpt lat="49.47422" lon="3.73745">
        <ele>137.33</ele>
        <time>2021-10-18T13:38:02.310Z</time>
      </trkpt>
      <trkpt lat="49.47428" lon="3.73754">
        <ele>140.61</ele>
        <time>2021-10-18T13:38:12.000Z</time>
      </trkpt>
      <trkpt lat="49.47431" lon="3.73768">
        <ele>142.31</ele>
        <time>2021-10-18T13:38:21.352Z</time>
      </trkpt>
      <trkpt lat="49.47438" lon="3.73786">
        <ele>142.49</ele>
        <time>2021-10-18T13:38:31.509Z</time>
      </trkpt>
      <trkpt lat="49.47443" lon="3.73797">
        <ele>143.36</ele>
        <time>2021-10-18T13:38:41.546Z</time>
      </trkpt>
      <trkpt lat="49.47447" lon="3.73804">
        <ele>146.46</ele>
        <time>2021-10-18T13:38:50.662Z</time>
      </trkpt>
      <trkpt lat="49.4745" lon="3.73814">
        <ele>148.08</ele>
        <time>2021-10-18T13:39:00.350Z</time>
      </trkpt>
      <trkpt lat="49.47451" lon="3.73825">
        <ele>149.14</ele>
        <time>2021-10-18T13:39:09.351Z</time>
      </trkpt>
      <trkpt lat="49.47451" lon="3.73837">
        <ele>150</ele>
        <time>2021-10-18T13:39:18.354Z</time>
      </trkpt>
      <trkpt lat="49.47453" lon="3.7385">
        <ele>152.24</ele>
        <time>2021-10-18T13:39:27.429Z</time>
      </trkpt>
      <trkpt lat="49.47456" lon="3.7386">
        <ele>151.92</ele>
        <time>2021-10-18T13:39:36.825Z</time>
      </trkpt>
      <trkpt lat="49.47458" lon="3.73874">
        <ele>152.11</ele>
        <time>2021-10-18T13:39:46.602Z</time>
      </trkpt>
      <trkpt lat="49.47459" lon="3.73888">
        <ele>154.75</ele>
        <time>2021-10-18T13:39:56.000Z</time>
      </trkpt>
      <trkpt lat="49.47464" lon="3.73899">
        <ele>158.28</ele>
        <time>2021-10-18T13:40:05.603Z</time>
      </trkpt>
      <trkpt lat="49.47467" lon="3.73912">
        <ele>159.28</ele>
        <time>2021-10-18T13:40:14.908Z</time>
      </trkpt>
      <trkpt lat="49.47468" lon="3.73927">
        <ele>162.7</ele>
        <time>2021-10-18T13:40:25.000Z</time>
      </trkpt>
      <trkpt lat="49.47469" lon="3.73938">
        <ele>167.11</ele>
        <time>2021-10-18T13:40:34.291Z</time>
      </trkpt>
      <trkpt lat="49.47471" lon="3.73948">
        <ele>166.04</ele>
        <time>2021-10-18T13:40:43.685Z</time>
      </trkpt>
      <trkpt lat="49.47477" lon="3.73957">
        <ele>168.48</ele>
        <time>2021-10-18T13:40:53.000Z</time>
      </trkpt>
      <trkpt lat="49.4748" lon="3.7397">
        <ele>170.6</ele>
        <time>2021-10-18T13:41:02.550Z</time>
      </trkpt>
      <trkpt lat="49.47483" lon="3.73985">
        <ele>169.01</ele>
        <time>2021-10-18T13:41:12.000Z</time>
      </trkpt>
      <trkpt lat="49.47482" lon="3.73998">
        <ele>171.76</ele>
        <time>2021-10-18T13:41:21.703Z</time>
      </trkpt>
      <trkpt lat="49.47484" lon="3.74007">
        <ele>169.12</ele>
        <time>2021-10-18T13:41:31.000Z</time>
      </trkpt>
      <trkpt lat="49.47486" lon="3.74018">
        <ele>172.71</ele>
        <time>2021-10-18T13:41:40.352Z</time>
      </trkpt>
      <trkpt lat="49.47488" lon="3.7403">
        <ele>175.44</ele>
        <time>2021-10-18T13:41:49.430Z</time>
      </trkpt>
      <trkpt lat="49.47489" lon="3.74047">
        <ele>175.53</ele>
        <time>2021-10-18T13:41:59.404Z</time>
      </trkpt>
      <trkpt lat="49.47489" lon="3.74062">
        <ele>175.61</ele>
        <time>2021-10-18T13:42:08.708Z</time>
      </trkpt>
      <trkpt lat="49.4749" lon="3.74075">
        <ele>177.1</ele>
        <time>2021-10-18T13:42:18.000Z</time>
      </trkpt>
      <trkpt lat="49.47494" lon="3.74089">
        <ele>180.94</ele>
        <time>2021-10-18T13:42:27.469Z</time>
      </trkpt>
      <trkpt lat="49.47496" lon="3.74103">
        <ele>182.87</ele>
        <time>2021-10-18T13:42:37.066Z</time>
      </trkpt>
      <trkpt lat="49.47498" lon="3.74119">
        <ele>181.94</ele>
        <time>2021-10-18T13:42:46.643Z</time>
      </trkpt>
      <trkpt lat="49.47498" lon="3.74133">
        <ele>181.26</ele>
        <time>2021-10-18T13:42:56.049Z</time>
      </trkpt>
      <trkpt lat="49.47503" lon="3.74142">
        <ele>182.81</ele>
        <time>2021-10-18T13:43:06.000Z</time>
      </trkpt>
      <trkpt lat="49.47508" lon="3.7414">
        <ele>181.52</ele>
        <time>2021-10-18T13:43:16.000Z</time>
      </trkpt>
      <trkpt lat="49.47508" lon="3.74142">
        <ele>178.01</ele>
        <time>2021-10-18T13:43:47.000Z</time>
      </trkpt>
      <trkpt lat="49.47508" lon="3.74145">
        <ele>175.99</ele>
        <time>2021-10-18T13:43:57.000Z</time>
      </trkpt>
      <trkpt lat="49.47509" lon="3.74145">
        <ele>173.87</ele>
        <time>2021-10-18T13:44:13.000Z</time>
      </trkpt>
      <trkpt lat="49.47508" lon="3.74147">
        <ele>172.17</ele>
        <time>2021-10-18T13:44:23.000Z</time>
      </trkpt>
      <trkpt lat="49.47507" lon="3.74147">
        <ele>170.18</ele>
        <time>2021-10-18T13:44:33.000Z</time>
      </trkpt>
      <trkpt lat="49.47508" lon="3.74146">
        <ele>178.72</ele>
        <time>2021-10-18T13:46:02.000Z</time>
      </trkpt>
      <trkpt lat="49.47511" lon="3.74146">
        <ele>179.92</ele>
        <time>2021-10-18T13:46:12.000Z</time>
      </trkpt>
      <trkpt lat="49.47514" lon="3.74141">
        <ele>181.74</ele>
        <time>2021-10-18T13:46:22.000Z</time>
      </trkpt>
      <trkpt lat="49.47507" lon="3.74136">
        <ele>185.31</ele>
        <time>2021-10-18T13:46:32.000Z</time>
      </trkpt>
      <trkpt lat="49.47508" lon="3.74138">
        <ele>185.66</ele>
        <time>2021-10-18T13:46:54.000Z</time>
      </trkpt>
      <trkpt lat="49.47509" lon="3.74139">
        <ele>186.18</ele>
        <time>2021-10-18T13:47:05.000Z</time>
      </trkpt>
      <trkpt lat="49.47509" lon="3.74141">
        <ele>184.85</ele>
        <time>2021-10-18T13:47:15.000Z</time>
      </trkpt>
      <trkpt lat="49.47509" lon="3.74133">
        <ele>183.19</ele>
        <time>2021-10-18T13:47:25.000Z</time>
      </trkpt>
      <trkpt lat="49.47509" lon="3.74137">
        <ele>185.18</ele>
        <time>2021-10-18T13:47:35.000Z</time>
      </trkpt>
      <trkpt lat="49.47513" lon="3.74141">
        <ele>181.68</ele>
        <time>2021-10-18T13:47:45.000Z</time>
      </trkpt>
      <trkpt lat="49.47515" lon="3.7414">
        <ele>184.78</ele>
        <time>2021-10-18T13:47:55.000Z</time>
      </trkpt>
      <trkpt lat="49.47515" lon="3.74141">
        <ele>184.61</ele>
        <time>2021-10-18T13:48:21.000Z</time>
      </trkpt>
      <trkpt lat="49.47515" lon="3.74143">
        <ele>184.13</ele>
        <time>2021-10-18T13:48:33.000Z</time>
      </trkpt>
      <trkpt lat="49.47513" lon="3.74137">
        <ele>185.04</ele>
        <time>2021-10-18T13:48:42.249Z</time>
      </trkpt>
      <trkpt lat="49.4751" lon="3.74116">
        <ele>187.06</ele>
        <time>2021-10-18T13:48:51.263Z</time>
      </trkpt>
      <trkpt lat="49.47511" lon="3.74102">
        <ele>184.12</ele>
        <time>2021-10-18T13:49:00.385Z</time>
      </trkpt>
      <trkpt lat="49.4751" lon="3.74092">
        <ele>183.21</ele>
        <time>2021-10-18T13:49:09.421Z</time>
      </trkpt>
      <trkpt lat="49.47508" lon="3.74076">
        <ele>181.15</ele>
        <time>2021-10-18T13:49:18.886Z</time>
      </trkpt>
      <trkpt lat="49.47507" lon="3.74058">
        <ele>180.13</ele>
        <time>2021-10-18T13:49:28.463Z</time>
      </trkpt>
      <trkpt lat="49.47508" lon="3.74045">
        <ele>178.43</ele>
        <time>2021-10-18T13:49:37.808Z</time>
      </trkpt>
      <trkpt lat="49.47509" lon="3.74029">
        <ele>176.02</ele>
        <time>2021-10-18T13:49:48.000Z</time>
      </trkpt>
      <trkpt lat="49.47503" lon="3.74004">
        <ele>172.44</ele>
        <time>2021-10-18T13:49:57.292Z</time>
      </trkpt>
      <trkpt lat="49.475" lon="3.73983">
        <ele>168.63</ele>
        <time>2021-10-18T13:50:06.622Z</time>
      </trkpt>
      <trkpt lat="49.47497" lon="3.73964">
        <ele>167.63</ele>
        <time>2021-10-18T13:50:16.505Z</time>
      </trkpt>
      <trkpt lat="49.47496" lon="3.73945">
        <ele>164.56</ele>
        <time>2021-10-18T13:50:26.000Z</time>
      </trkpt>
      <trkpt lat="49.47497" lon="3.73927">
        <ele>164.72</ele>
        <time>2021-10-18T13:50:35.428Z</time>
      </trkpt>
      <trkpt lat="49.475" lon="3.7391">
        <ele>164.35</ele>
        <time>2021-10-18T13:50:44.703Z</time>
      </trkpt>
      <trkpt lat="49.47504" lon="3.73893">
        <ele>162.08</ele>
        <time>2021-10-18T13:50:53.991Z</time>
      </trkpt>
      <trkpt lat="49.47508" lon="3.73878">
        <ele>158.49</ele>
        <time>2021-10-18T13:51:03.347Z</time>
      </trkpt>
      <trkpt lat="49.47513" lon="3.73862">
        <ele>155.41</ele>
        <time>2021-10-18T13:51:13.209Z</time>
      </trkpt>
      <trkpt lat="49.47516" lon="3.73847">
        <ele>154.45</ele>
        <time>2021-10-18T13:51:22.663Z</time>
      </trkpt>
      <trkpt lat="49.47522" lon="3.73835">
        <ele>151.18</ele>
        <time>2021-10-18T13:51:31.665Z</time>
      </trkpt>
      <trkpt lat="49.47532" lon="3.73825">
        <ele>149.98</ele>
        <time>2021-10-18T13:51:41.128Z</time>
      </trkpt>
      <trkpt lat="49.4754" lon="3.73815">
        <ele>147.44</ele>
        <time>2021-10-18T13:51:50.502Z</time>
      </trkpt>
      <trkpt lat="49.47547" lon="3.73804">
        <ele>146.28</ele>
        <time>2021-10-18T13:51:59.548Z</time>
      </trkpt>
      <trkpt lat="49.47556" lon="3.73793">
        <ele>143.34</ele>
        <time>2021-10-18T13:52:09.623Z</time>
      </trkpt>
      <trkpt lat="49.4756" lon="3.73778">
        <ele>137.23</ele>
        <time>2021-10-18T13:52:19.607Z</time>
      </trkpt>
      <trkpt lat="49.47561" lon="3.73763">
        <ele>139.09</ele>
        <time>2021-10-18T13:52:29.000Z</time>
      </trkpt>
      <trkpt lat="49.4756" lon="3.73768">
        <ele>136.19</ele>
        <time>2021-10-18T13:52:39.000Z</time>
      </trkpt>
      <trkpt lat="49.47575" lon="3.73754">
        <ele>137.81</ele>
        <time>2021-10-18T13:52:49.000Z</time>
      </trkpt>
      <trkpt lat="49.47585" lon="3.73751">
        <ele>146.69</ele>
        <time>2021-10-18T13:52:58.214Z</time>
      </trkpt>
      <trkpt lat="49.47594" lon="3.73748">
        <ele>150.9</ele>
        <time>2021-10-18T13:53:07.695Z</time>
      </trkpt>
      <trkpt lat="49.47595" lon="3.7374">
        <ele>155.8</ele>
        <time>2021-10-18T13:53:17.202Z</time>
      </trkpt>
      <trkpt lat="49.476" lon="3.73724">
        <ele>158.79</ele>
        <time>2021-10-18T13:53:26.271Z</time>
      </trkpt>
      <trkpt lat="49.47606" lon="3.73711">
        <ele>157.92</ele>
        <time>2021-10-18T13:53:36.000Z</time>
      </trkpt>
      <trkpt lat="49.47608" lon="3.73696">
        <ele>156.28</ele>
        <time>2021-10-18T13:53:45.997Z</time>
      </trkpt>
      <trkpt lat="49.47614" lon="3.73682">
        <ele>152.92</ele>
        <time>2021-10-18T13:53:55.433Z</time>
      </trkpt>
      <trkpt lat="49.4762" lon="3.73669">
        <ele>152.41</ele>
        <time>2021-10-18T13:54:04.833Z</time>
      </trkpt>
      <trkpt lat="49.47624" lon="3.73658">
        <ele>146.75</ele>
        <time>2021-10-18T13:54:14.137Z</time>
      </trkpt>
      <trkpt lat="49.4763" lon="3.73646">
        <ele>144.82</ele>
        <time>2021-10-18T13:54:24.255Z</time>
      </trkpt>
      <trkpt lat="49.47635" lon="3.73633">
        <ele>145.68</ele>
        <time>2021-10-18T13:54:33.333Z</time>
      </trkpt>
      <trkpt lat="49.47641" lon="3.73623">
        <ele>142.68</ele>
        <time>2021-10-18T13:54:42.437Z</time>
      </trkpt>
      <trkpt lat="49.47651" lon="3.73614">
        <ele>142.21</ele>
        <time>2021-10-18T13:54:51.605Z</time>
      </trkpt>
      <trkpt lat="49.4766" lon="3.73604">
        <ele>141.75</ele>
        <time>2021-10-18T13:55:00.739Z</time>
      </trkpt>
      <trkpt lat="49.47668" lon="3.73596">
        <ele>139.9</ele>
        <time>2021-10-18T13:55:10.000Z</time>
      </trkpt>
      <trkpt lat="49.47677" lon="3.73585">
        <ele>144.84</ele>
        <time>2021-10-18T13:55:19.359Z</time>
      </trkpt>
      <trkpt lat="49.47687" lon="3.73576">
        <ele>145.52</ele>
        <time>2021-10-18T13:55:28.474Z</time>
      </trkpt>
      <trkpt lat="49.47698" lon="3.73567">
        <ele>145.94</ele>
        <time>2021-10-18T13:55:38.000Z</time>
      </trkpt>
      <trkpt lat="49.47707" lon="3.73555">
        <ele>149.22</ele>
        <time>2021-10-18T13:55:47.379Z</time>
      </trkpt>
      <trkpt lat="49.47715" lon="3.73542">
        <ele>147.86</ele>
        <time>2021-10-18T13:55:57.296Z</time>
      </trkpt>
      <trkpt lat="49.4772" lon="3.73526">
        <ele>152.33</ele>
        <time>2021-10-18T13:56:07.118Z</time>
      </trkpt>
      <trkpt lat="49.47731" lon="3.73512">
        <ele>148.88</ele>
        <time>2021-10-18T13:56:17.126Z</time>
      </trkpt>
      <trkpt lat="49.47737" lon="3.73497">
        <ele>149.6</ele>
        <time>2021-10-18T13:56:26.911Z</time>
      </trkpt>
      <trkpt lat="49.47743" lon="3.73486">
        <ele>148.51</ele>
        <time>2021-10-18T13:56:36.000Z</time>
      </trkpt>
      <trkpt lat="49.47749" lon="3.73471">
        <ele>147.39</ele>
        <time>2021-10-18T13:56:45.880Z</time>
      </trkpt>
      <trkpt lat="49.47753" lon="3.73458">
        <ele>146.75</ele>
        <time>2021-10-18T13:56:55.191Z</time>
      </trkpt>
      <trkpt lat="49.47756" lon="3.73443">
        <ele>147.7</ele>
        <time>2021-10-18T13:57:04.812Z</time>
      </trkpt>
      <trkpt lat="49.47762" lon="3.7343">
        <ele>145.94</ele>
        <time>2021-10-18T13:57:14.279Z</time>
      </trkpt>
      <trkpt lat="49.47769" lon="3.73418">
        <ele>147.47</ele>
        <time>2021-10-18T13:57:23.339Z</time>
      </trkpt>
      <trkpt lat="49.47777" lon="3.73405">
        <ele>142.68</ele>
        <time>2021-10-18T13:57:32.771Z</time>
      </trkpt>
      <trkpt lat="49.47783" lon="3.73392">
        <ele>144.82</ele>
        <time>2021-10-18T13:57:42.317Z</time>
      </trkpt>
      <trkpt lat="49.47788" lon="3.73375">
        <ele>142.98</ele>
        <time>2021-10-18T13:57:52.431Z</time>
      </trkpt>
      <trkpt lat="49.4779" lon="3.73358">
        <ele>142.57</ele>
        <time>2021-10-18T13:58:01.993Z</time>
      </trkpt>
      <trkpt lat="49.47791" lon="3.73342">
        <ele>143.83</ele>
        <time>2021-10-18T13:58:12.000Z</time>
      </trkpt>
      <trkpt lat="49.47794" lon="3.73324">
        <ele>142.4</ele>
        <time>2021-10-18T13:58:21.491Z</time>
      </trkpt>
      <trkpt lat="49.47797" lon="3.73307">
        <ele>146.63</ele>
        <time>2021-10-18T13:58:30.759Z</time>
      </trkpt>
      <trkpt lat="49.47801" lon="3.73292">
        <ele>145.89</ele>
        <time>2021-10-18T13:58:39.772Z</time>
      </trkpt>
      <trkpt lat="49.47803" lon="3.73276">
        <ele>143.88</ele>
        <time>2021-10-18T13:58:49.418Z</time>
      </trkpt>
      <trkpt lat="49.47801" lon="3.73258">
        <ele>143.74</ele>
        <time>2021-10-18T13:59:00.000Z</time>
      </trkpt>
      <trkpt lat="49.47801" lon="3.7324">
        <ele>142.74</ele>
        <time>2021-10-18T13:59:10.013Z</time>
      </trkpt>
      <trkpt lat="49.47804" lon="3.73222">
        <ele>145.92</ele>
        <time>2021-10-18T13:59:20.000Z</time>
      </trkpt>
      <trkpt lat="49.4781" lon="3.73205">
        <ele>148.79</ele>
        <time>2021-10-18T13:59:30.139Z</time>
      </trkpt>
      <trkpt lat="49.47814" lon="3.73195">
        <ele>148.15</ele>
        <time>2021-10-18T13:59:40.000Z</time>
      </trkpt>
      <trkpt lat="49.47816" lon="3.73191">
        <ele>154.16</ele>
        <time>2021-10-18T13:59:49.315Z</time>
      </trkpt>
      <trkpt lat="49.47819" lon="3.73179">
        <ele>159.46</ele>
        <time>2021-10-18T13:59:59.000Z</time>
      </trkpt>
      <trkpt lat="49.47823" lon="3.73168">
        <ele>162.71</ele>
        <time>2021-10-18T14:00:08.034Z</time>
      </trkpt>
      <trkpt lat="49.47824" lon="3.73152">
        <ele>164</ele>
        <time>2021-10-18T14:00:17.493Z</time>
      </trkpt>
      <trkpt lat="49.47823" lon="3.73139">
        <ele>169.95</ele>
        <time>2021-10-18T14:00:27.121Z</time>
      </trkpt>
      <trkpt lat="49.47821" lon="3.73126">
        <ele>171.07</ele>
        <time>2021-10-18T14:00:37.180Z</time>
      </trkpt>
      <trkpt lat="49.47822" lon="3.73105">
        <ele>171.46</ele>
        <time>2021-10-18T14:00:46.292Z</time>
      </trkpt>
      <trkpt lat="49.47824" lon="3.73089">
        <ele>171.98</ele>
        <time>2021-10-18T14:00:55.319Z</time>
      </trkpt>
      <trkpt lat="49.4782" lon="3.73065">
        <ele>171.68</ele>
        <time>2021-10-18T14:01:05.331Z</time>
      </trkpt>
      <trkpt lat="49.47816" lon="3.73042">
        <ele>173.31</ele>
        <time>2021-10-18T14:01:14.633Z</time>
      </trkpt>
      <trkpt lat="49.47814" lon="3.73025">
        <ele>173.47</ele>
        <time>2021-10-18T14:01:23.714Z</time>
      </trkpt>
      <trkpt lat="49.47812" lon="3.73008">
        <ele>171.6</ele>
        <time>2021-10-18T14:01:32.973Z</time>
      </trkpt>
      <trkpt lat="49.47809" lon="3.72996">
        <ele>171.43</ele>
        <time>2021-10-18T14:01:42.000Z</time>
      </trkpt>
      <trkpt lat="49.47802" lon="3.72984">
        <ele>172.86</ele>
        <time>2021-10-18T14:01:51.819Z</time>
      </trkpt>
      <trkpt lat="49.47799" lon="3.72971">
        <ele>172.2</ele>
        <time>2021-10-18T14:02:01.013Z</time>
      </trkpt>
      <trkpt lat="49.47797" lon="3.72956">
        <ele>172.03</ele>
        <time>2021-10-18T14:02:10.215Z</time>
      </trkpt>
      <trkpt lat="49.47793" lon="3.72925">
        <ele>171.31</ele>
        <time>2021-10-18T14:02:20.150Z</time>
      </trkpt>
      <trkpt lat="49.4779" lon="3.72904">
        <ele>170.48</ele>
        <time>2021-10-18T14:02:29.375Z</time>
      </trkpt>
      <trkpt lat="49.47785" lon="3.72886">
        <ele>167.04</ele>
        <time>2021-10-18T14:02:39.000Z</time>
      </trkpt>
      <trkpt lat="49.4778" lon="3.72869">
        <ele>165.8</ele>
        <time>2021-10-18T14:02:48.282Z</time>
      </trkpt>
      <trkpt lat="49.47776" lon="3.72852">
        <ele>163.44</ele>
        <time>2021-10-18T14:02:57.394Z</time>
      </trkpt>
      <trkpt lat="49.47772" lon="3.72832">
        <ele>161.39</ele>
        <time>2021-10-18T14:03:07.171Z</time>
      </trkpt>
      <trkpt lat="49.4777" lon="3.72814">
        <ele>160</ele>
        <time>2021-10-18T14:03:16.632Z</time>
      </trkpt>
      <trkpt lat="49.47767" lon="3.72797">
        <ele>158.62</ele>
        <time>2021-10-18T14:03:25.855Z</time>
      </trkpt>
      <trkpt lat="49.47762" lon="3.7278">
        <ele>157.29</ele>
        <time>2021-10-18T14:03:34.923Z</time>
      </trkpt>
      <trkpt lat="49.47754" lon="3.72762">
        <ele>151.28</ele>
        <time>2021-10-18T14:03:44.772Z</time>
      </trkpt>
      <trkpt lat="49.47749" lon="3.72745">
        <ele>150.75</ele>
        <time>2021-10-18T14:03:54.000Z</time>
      </trkpt>
      <trkpt lat="49.47745" lon="3.72727">
        <ele>145.93</ele>
        <time>2021-10-18T14:04:03.193Z</time>
      </trkpt>
      <trkpt lat="49.47744" lon="3.72708">
        <ele>146.47</ele>
        <time>2021-10-18T14:04:12.440Z</time>
      </trkpt>
      <trkpt lat="49.47746" lon="3.72693">
        <ele>146.28</ele>
        <time>2021-10-18T14:04:21.693Z</time>
      </trkpt>
      <trkpt lat="49.47751" lon="3.72682">
        <ele>146.72</ele>
        <time>2021-10-18T14:04:31.000Z</time>
      </trkpt>
      <trkpt lat="49.47752" lon="3.72664">
        <ele>146.16</ele>
        <time>2021-10-18T14:04:40.036Z</time>
      </trkpt>
      <trkpt lat="49.47748" lon="3.72645">
        <ele>146.55</ele>
        <time>2021-10-18T14:04:50.177Z</time>
      </trkpt>
      <trkpt lat="49.47747" lon="3.72627">
        <ele>148.4</ele>
        <time>2021-10-18T14:05:00.000Z</time>
      </trkpt>
      <trkpt lat="49.47748" lon="3.72607">
        <ele>149.47</ele>
        <time>2021-10-18T14:05:10.000Z</time>
      </trkpt>
      <trkpt lat="49.47747" lon="3.72587">
        <ele>149.41</ele>
        <time>2021-10-18T14:05:20.258Z</time>
      </trkpt>
      <trkpt lat="49.47747" lon="3.72571">
        <ele>148.69</ele>
        <time>2021-10-18T14:05:29.513Z</time>
      </trkpt>
      <trkpt lat="49.47746" lon="3.72554">
        <ele>147.94</ele>
        <time>2021-10-18T14:05:39.418Z</time>
      </trkpt>
      <trkpt lat="49.47745" lon="3.72537">
        <ele>147.64</ele>
        <time>2021-10-18T14:05:48.900Z</time>
      </trkpt>
      <trkpt lat="49.47744" lon="3.7252">
        <ele>149.47</ele>
        <time>2021-10-18T14:05:58.273Z</time>
      </trkpt>
      <trkpt lat="49.47744" lon="3.72502">
        <ele>147.95</ele>
        <time>2021-10-18T14:06:08.000Z</time>
      </trkpt>
      <trkpt lat="49.47744" lon="3.72485">
        <ele>146.26</ele>
        <time>2021-10-18T14:06:17.001Z</time>
      </trkpt>
      <trkpt lat="49.47745" lon="3.72469">
        <ele>148.13</ele>
        <time>2021-10-18T14:06:26.375Z</time>
      </trkpt>
      <trkpt lat="49.47745" lon="3.72454">
        <ele>149.29</ele>
        <time>2021-10-18T14:06:36.000Z</time>
      </trkpt>
      <trkpt lat="49.47749" lon="3.72437">
        <ele>150.34</ele>
        <time>2021-10-18T14:06:46.123Z</time>
      </trkpt>
      <trkpt lat="49.47753" lon="3.72427">
        <ele>151.99</ele>
        <time>2021-10-18T14:06:56.000Z</time>
      </trkpt>
      <trkpt lat="49.47758" lon="3.72414">
        <ele>150.19</ele>
        <time>2021-10-18T14:07:06.000Z</time>
      </trkpt>
      <trkpt lat="49.47761" lon="3.72405">
        <ele>152.84</ele>
        <time>2021-10-18T14:07:15.275Z</time>
      </trkpt>
      <trkpt lat="49.47757" lon="3.72386">
        <ele>153.04</ele>
        <time>2021-10-18T14:07:25.258Z</time>
      </trkpt>
      <trkpt lat="49.47751" lon="3.72368">
        <ele>154.87</ele>
        <time>2021-10-18T14:07:35.299Z</time>
      </trkpt>
      <trkpt lat="49.47746" lon="3.72351">
        <ele>155.65</ele>
        <time>2021-10-18T14:07:45.310Z</time>
      </trkpt>
      <trkpt lat="49.47744" lon="3.72335">
        <ele>159.24</ele>
        <time>2021-10-18T14:07:54.477Z</time>
      </trkpt>
      <trkpt lat="49.47745" lon="3.72325">
        <ele>160.18</ele>
        <time>2021-10-18T14:08:04.000Z</time>
      </trkpt>
      <trkpt lat="49.47745" lon="3.72324">
        <ele>163.16</ele>
        <time>2021-10-18T14:08:15.000Z</time>
      </trkpt>
      <trkpt lat="49.47744" lon="3.72325">
        <ele>163.62</ele>
        <time>2021-10-18T14:08:25.000Z</time>
      </trkpt>
      <trkpt lat="49.47743" lon="3.72323">
        <ele>163.85</ele>
        <time>2021-10-18T14:08:36.000Z</time>
      </trkpt>
      <trkpt lat="49.47741" lon="3.72311">
        <ele>165.72</ele>
        <time>2021-10-18T14:08:46.000Z</time>
      </trkpt>
      <trkpt lat="49.47739" lon="3.72301">
        <ele>165.98</ele>
        <time>2021-10-18T14:08:56.000Z</time>
      </trkpt>
      <trkpt lat="49.47738" lon="3.72293">
        <ele>167.84</ele>
        <time>2021-10-18T14:09:06.000Z</time>
      </trkpt>
      <trkpt lat="49.47735" lon="3.72282">
        <ele>164.27</ele>
        <time>2021-10-18T14:09:16.000Z</time>
      </trkpt>
      <trkpt lat="49.47734" lon="3.72273">
        <ele>166.51</ele>
        <time>2021-10-18T14:09:25.152Z</time>
      </trkpt>
      <trkpt lat="49.47732" lon="3.72265">
        <ele>161.3</ele>
        <time>2021-10-18T14:09:35.000Z</time>
      </trkpt>
      <trkpt lat="49.47728" lon="3.72257">
        <ele>164.04</ele>
        <time>2021-10-18T14:09:44.339Z</time>
      </trkpt>
      <trkpt lat="49.47723" lon="3.72254">
        <ele>161.16</ele>
        <time>2021-10-18T14:09:53.690Z</time>
      </trkpt>
      <trkpt lat="49.47717" lon="3.72246">
        <ele>162.04</ele>
        <time>2021-10-18T14:10:03.259Z</time>
      </trkpt>
      <trkpt lat="49.47715" lon="3.72234">
        <ele>163.4</ele>
        <time>2021-10-18T14:10:13.000Z</time>
      </trkpt>
      <trkpt lat="49.47708" lon="3.72224">
        <ele>159.28</ele>
        <time>2021-10-18T14:10:23.000Z</time>
      </trkpt>
      <trkpt lat="49.47707" lon="3.72223">
        <ele>158.8</ele>
        <time>2021-10-18T14:10:33.000Z</time>
      </trkpt>
      <trkpt lat="49.47702" lon="3.72213">
        <ele>158.02</ele>
        <time>2021-10-18T14:10:43.000Z</time>
      </trkpt>
      <trkpt lat="49.477" lon="3.72204">
        <ele>158.04</ele>
        <time>2021-10-18T14:10:52.412Z</time>
      </trkpt>
      <trkpt lat="49.47696" lon="3.72195">
        <ele>158.32</ele>
        <time>2021-10-18T14:11:02.000Z</time>
      </trkpt>
      <trkpt lat="49.47693" lon="3.7219">
        <ele>157.89</ele>
        <time>2021-10-18T14:11:12.000Z</time>
      </trkpt>
      <trkpt lat="49.4769" lon="3.72194">
        <ele>157.5</ele>
        <time>2021-10-18T14:11:22.000Z</time>
      </trkpt>
      <trkpt lat="49.4768" lon="3.72189">
        <ele>154.21</ele>
        <time>2021-10-18T14:11:31.141Z</time>
      </trkpt>
      <trkpt lat="49.47672" lon="3.72191">
        <ele>156.86</ele>
        <time>2021-10-18T14:11:40.410Z</time>
      </trkpt>
      <trkpt lat="49.47664" lon="3.72193">
        <ele>157.38</ele>
        <time>2021-10-18T14:11:50.000Z</time>
      </trkpt>
      <trkpt lat="49.47656" lon="3.72183">
        <ele>160.66</ele>
        <time>2021-10-18T14:11:59.735Z</time>
      </trkpt>
      <trkpt lat="49.47651" lon="3.72174">
        <ele>159.96</ele>
        <time>2021-10-18T14:12:08.830Z</time>
      </trkpt>
      <trkpt lat="49.47644" lon="3.72165">
        <ele>162.74</ele>
        <time>2021-10-18T14:12:18.071Z</time>
      </trkpt>
      <trkpt lat="49.47638" lon="3.72155">
        <ele>161.77</ele>
        <time>2021-10-18T14:12:27.431Z</time>
      </trkpt>
      <trkpt lat="49.47634" lon="3.7215">
        <ele>165.42</ele>
        <time>2021-10-18T14:12:36.849Z</time>
      </trkpt>
      <trkpt lat="49.47627" lon="3.72142">
        <ele>161.06</ele>
        <time>2021-10-18T14:12:46.092Z</time>
      </trkpt>
      <trkpt lat="49.47619" lon="3.72132">
        <ele>162.12</ele>
        <time>2021-10-18T14:12:55.388Z</time>
      </trkpt>
      <trkpt lat="49.47607" lon="3.72129">
        <ele>162.43</ele>
        <time>2021-10-18T14:13:05.000Z</time>
      </trkpt>
      <trkpt lat="49.47602" lon="3.72123">
        <ele>164.47</ele>
        <time>2021-10-18T14:13:15.000Z</time>
      </trkpt>
      <trkpt lat="49.47595" lon="3.72118">
        <ele>168.37</ele>
        <time>2021-10-18T14:13:25.000Z</time>
      </trkpt>
      <trkpt lat="49.47592" lon="3.72112">
        <ele>167.03</ele>
        <time>2021-10-18T14:13:35.000Z</time>
      </trkpt>
      <trkpt lat="49.47592" lon="3.7211">
        <ele>169.14</ele>
        <time>2021-10-18T14:13:45.000Z</time>
      </trkpt>
      <trkpt lat="49.47593" lon="3.72111">
        <ele>171.42</ele>
        <time>2021-10-18T14:13:55.000Z</time>
      </trkpt>
      <trkpt lat="49.47595" lon="3.72112">
        <ele>169.8</ele>
        <time>2021-10-18T14:14:05.000Z</time>
      </trkpt>
      <trkpt lat="49.47594" lon="3.72109">
        <ele>170.48</ele>
        <time>2021-10-18T14:14:14.012Z</time>
      </trkpt>
      <trkpt lat="49.47594" lon="3.72102">
        <ele>170.39</ele>
        <time>2021-10-18T14:14:23.314Z</time>
      </trkpt>
      <trkpt lat="49.47585" lon="3.72097">
        <ele>170.77</ele>
        <time>2021-10-18T14:14:33.316Z</time>
      </trkpt>
      <trkpt lat="49.47576" lon="3.7209">
        <ele>168.37</ele>
        <time>2021-10-18T14:14:43.209Z</time>
      </trkpt>
      <trkpt lat="49.47569" lon="3.72076">
        <ele>168.5</ele>
        <time>2021-10-18T14:14:53.308Z</time>
      </trkpt>
      <trkpt lat="49.47562" lon="3.72065">
        <ele>167.52</ele>
        <time>2021-10-18T14:15:02.452Z</time>
      </trkpt>
      <trkpt lat="49.47555" lon="3.72054">
        <ele>167.54</ele>
        <time>2021-10-18T14:15:11.536Z</time>
      </trkpt>
      <trkpt lat="49.47546" lon="3.72043">
        <ele>170.83</ele>
        <time>2021-10-18T14:15:20.889Z</time>
      </trkpt>
      <trkpt lat="49.47541" lon="3.72028">
        <ele>171.68</ele>
        <time>2021-10-18T14:15:30.492Z</time>
      </trkpt>
      <trkpt lat="49.47537" lon="3.7201">
        <ele>170.44</ele>
        <time>2021-10-18T14:15:41.000Z</time>
      </trkpt>
      <trkpt lat="49.47527" lon="3.71998">
        <ele>168.3</ele>
        <time>2021-10-18T14:15:50.253Z</time>
      </trkpt>
      <trkpt lat="49.47518" lon="3.7199">
        <ele>171.69</ele>
        <time>2021-10-18T14:15:59.409Z</time>
      </trkpt>
      <trkpt lat="49.47512" lon="3.71977">
        <ele>167.62</ele>
        <time>2021-10-18T14:16:08.811Z</time>
      </trkpt>
      <trkpt lat="49.47512" lon="3.71958">
        <ele>168.22</ele>
        <time>2021-10-18T14:16:18.140Z</time>
      </trkpt>
      <trkpt lat="49.47512" lon="3.71939">
        <ele>169.86</ele>
        <time>2021-10-18T14:16:27.492Z</time>
      </trkpt>
      <trkpt lat="49.47509" lon="3.7192">
        <ele>170.65</ele>
        <time>2021-10-18T14:16:36.809Z</time>
      </trkpt>
      <trkpt lat="49.47504" lon="3.71903">
        <ele>168.67</ele>
        <time>2021-10-18T14:16:46.211Z</time>
      </trkpt>
      <trkpt lat="49.47502" lon="3.71887">
        <ele>168.65</ele>
        <time>2021-10-18T14:16:55.708Z</time>
      </trkpt>
      <trkpt lat="49.475" lon="3.71868">
        <ele>172.31</ele>
        <time>2021-10-18T14:17:05.031Z</time>
      </trkpt>
      <trkpt lat="49.475" lon="3.71851">
        <ele>169.89</ele>
        <time>2021-10-18T14:17:14.327Z</time>
      </trkpt>
      <trkpt lat="49.47498" lon="3.71833">
        <ele>170.47</ele>
        <time>2021-10-18T14:17:24.251Z</time>
      </trkpt>
      <trkpt lat="49.47499" lon="3.71815">
        <ele>171.88</ele>
        <time>2021-10-18T14:17:33.476Z</time>
      </trkpt>
      <trkpt lat="49.47499" lon="3.71798">
        <ele>171.32</ele>
        <time>2021-10-18T14:17:43.000Z</time>
      </trkpt>
      <trkpt lat="49.475" lon="3.7178">
        <ele>170.91</ele>
        <time>2021-10-18T14:17:52.009Z</time>
      </trkpt>
      <trkpt lat="49.47501" lon="3.71763">
        <ele>169.71</ele>
        <time>2021-10-18T14:18:01.332Z</time>
      </trkpt>
      <trkpt lat="49.47497" lon="3.7175">
        <ele>168.08</ele>
        <time>2021-10-18T14:18:11.000Z</time>
      </trkpt>
      <trkpt lat="49.47493" lon="3.71735">
        <ele>168.3</ele>
        <time>2021-10-18T14:18:20.108Z</time>
      </trkpt>
      <trkpt lat="49.47487" lon="3.7172">
        <ele>170.03</ele>
        <time>2021-10-18T14:18:29.309Z</time>
      </trkpt>
      <trkpt lat="49.47484" lon="3.71705">
        <ele>170.32</ele>
        <time>2021-10-18T14:18:38.372Z</time>
      </trkpt>
      <trkpt lat="49.47482" lon="3.71691">
        <ele>169.64</ele>
        <time>2021-10-18T14:18:47.776Z</time>
      </trkpt>
      <trkpt lat="49.47478" lon="3.71679">
        <ele>167.91</ele>
        <time>2021-10-18T14:18:56.849Z</time>
      </trkpt>
      <trkpt lat="49.47473" lon="3.71665">
        <ele>169.51</ele>
        <time>2021-10-18T14:19:06.009Z</time>
      </trkpt>
      <trkpt lat="49.47472" lon="3.7165">
        <ele>171.67</ele>
        <time>2021-10-18T14:19:15.414Z</time>
      </trkpt>
      <trkpt lat="49.47471" lon="3.71643">
        <ele>171.42</ele>
        <time>2021-10-18T14:19:25.000Z</time>
      </trkpt>
      <trkpt lat="49.4747" lon="3.7164">
        <ele>167.6</ele>
        <time>2021-10-18T14:19:35.000Z</time>
      </trkpt>
      <trkpt lat="49.47468" lon="3.71639">
        <ele>169.04</ele>
        <time>2021-10-18T14:19:46.000Z</time>
      </trkpt>
      <trkpt lat="49.47467" lon="3.71638">
        <ele>169.98</ele>
        <time>2021-10-18T14:19:59.000Z</time>
      </trkpt>
      <trkpt lat="49.47465" lon="3.71637">
        <ele>170.37</ele>
        <time>2021-10-18T14:20:09.000Z</time>
      </trkpt>
      <trkpt lat="49.47463" lon="3.71636">
        <ele>172.67</ele>
        <time>2021-10-18T14:20:19.000Z</time>
      </trkpt>
      <trkpt lat="49.47462" lon="3.71638">
        <ele>170.35</ele>
        <time>2021-10-18T14:20:29.000Z</time>
      </trkpt>
      <trkpt lat="49.47461" lon="3.71639">
        <ele>171.35</ele>
        <time>2021-10-18T14:21:13.000Z</time>
      </trkpt>
      <trkpt lat="49.47463" lon="3.7164">
        <ele>170.35</ele>
        <time>2021-10-18T14:21:23.000Z</time>
      </trkpt>
      <trkpt lat="49.47464" lon="3.7164">
        <ele>170.32</ele>
        <time>2021-10-18T14:21:33.000Z</time>
      </trkpt>
      <trkpt lat="49.47464" lon="3.71638">
        <ele>169.04</ele>
        <time>2021-10-18T14:21:43.000Z</time>
      </trkpt>
      <trkpt lat="49.47465" lon="3.71635">
        <ele>168.22</ele>
        <time>2021-10-18T14:21:53.000Z</time>
      </trkpt>
      <trkpt lat="49.47467" lon="3.71636">
        <ele>176.18</ele>
        <time>2021-10-18T14:23:24.000Z</time>
      </trkpt>
      <trkpt lat="49.47475" lon="3.71629">
        <ele>173.84</ele>
        <time>2021-10-18T14:23:33.370Z</time>
      </trkpt>
      <trkpt lat="49.47476" lon="3.71614">
        <ele>175.7</ele>
        <time>2021-10-18T14:23:43.000Z</time>
      </trkpt>
      <trkpt lat="49.47478" lon="3.71602">
        <ele>173.15</ele>
        <time>2021-10-18T14:23:52.209Z</time>
      </trkpt>
      <trkpt lat="49.47484" lon="3.7159">
        <ele>175.55</ele>
        <time>2021-10-18T14:24:02.017Z</time>
      </trkpt>
      <trkpt lat="49.47487" lon="3.71573">
        <ele>178.64</ele>
        <time>2021-10-18T14:24:12.000Z</time>
      </trkpt>
      <trkpt lat="49.47487" lon="3.71554">
        <ele>179.44</ele>
        <time>2021-10-18T14:24:21.273Z</time>
      </trkpt>
      <trkpt lat="49.47486" lon="3.71533">
        <ele>178.89</ele>
        <time>2021-10-18T14:24:30.413Z</time>
      </trkpt>
      <trkpt lat="49.47481" lon="3.71516">
        <ele>179.17</ele>
        <time>2021-10-18T14:24:41.000Z</time>
      </trkpt>
      <trkpt lat="49.47479" lon="3.71499">
        <ele>175.54</ele>
        <time>2021-10-18T14:24:51.000Z</time>
      </trkpt>
      <trkpt lat="49.47478" lon="3.71479">
        <ele>176.29</ele>
        <time>2021-10-18T14:25:01.000Z</time>
      </trkpt>
      <trkpt lat="49.47474" lon="3.71461">
        <ele>179.73</ele>
        <time>2021-10-18T14:25:11.000Z</time>
      </trkpt>
      <trkpt lat="49.47469" lon="3.71441">
        <ele>178.15</ele>
        <time>2021-10-18T14:25:20.234Z</time>
      </trkpt>
      <trkpt lat="49.47464" lon="3.71425">
        <ele>179.7</ele>
        <time>2021-10-18T14:25:30.000Z</time>
      </trkpt>
      <trkpt lat="49.47459" lon="3.71409">
        <ele>179.68</ele>
        <time>2021-10-18T14:25:40.308Z</time>
      </trkpt>
      <trkpt lat="49.47453" lon="3.71393">
        <ele>179.86</ele>
        <time>2021-10-18T14:25:49.392Z</time>
      </trkpt>
      <trkpt lat="49.47448" lon="3.71378">
        <ele>178.42</ele>
        <time>2021-10-18T14:25:59.000Z</time>
      </trkpt>
      <trkpt lat="49.47443" lon="3.71364">
        <ele>179.61</ele>
        <time>2021-10-18T14:26:08.289Z</time>
      </trkpt>
      <trkpt lat="49.4744" lon="3.7135">
        <ele>177.93</ele>
        <time>2021-10-18T14:26:17.477Z</time>
      </trkpt>
      <trkpt lat="49.47434" lon="3.71334">
        <ele>176.74</ele>
        <time>2021-10-18T14:26:27.268Z</time>
      </trkpt>
      <trkpt lat="49.47427" lon="3.71321">
        <ele>175.41</ele>
        <time>2021-10-18T14:26:36.332Z</time>
      </trkpt>
      <trkpt lat="49.47416" lon="3.71316">
        <ele>173.68</ele>
        <time>2021-10-18T14:26:45.835Z</time>
      </trkpt>
      <trkpt lat="49.47404" lon="3.71311">
        <ele>175.54</ele>
        <time>2021-10-18T14:26:55.270Z</time>
      </trkpt>
      <trkpt lat="49.47394" lon="3.71302">
        <ele>175.57</ele>
        <time>2021-10-18T14:27:04.392Z</time>
      </trkpt>
      <trkpt lat="49.47387" lon="3.71293">
        <ele>174.82</ele>
        <time>2021-10-18T14:27:14.000Z</time>
      </trkpt>
      <trkpt lat="49.47377" lon="3.71284">
        <ele>176.4</ele>
        <time>2021-10-18T14:27:23.031Z</time>
      </trkpt>
      <trkpt lat="49.47368" lon="3.71271">
        <ele>174.05</ele>
        <time>2021-10-18T14:27:32.692Z</time>
      </trkpt>
      <trkpt lat="49.47357" lon="3.71257">
        <ele>173.07</ele>
        <time>2021-10-18T14:27:42.298Z</time>
      </trkpt>
      <trkpt lat="49.47348" lon="3.71245">
        <ele>173.95</ele>
        <time>2021-10-18T14:27:51.430Z</time>
      </trkpt>
      <trkpt lat="49.47342" lon="3.71229">
        <ele>174.83</ele>
        <time>2021-10-18T14:28:01.195Z</time>
      </trkpt>
      <trkpt lat="49.47341" lon="3.71213">
        <ele>174.36</ele>
        <time>2021-10-18T14:28:10.309Z</time>
      </trkpt>
      <trkpt lat="49.47338" lon="3.71198">
        <ele>172.39</ele>
        <time>2021-10-18T14:28:19.671Z</time>
      </trkpt>
      <trkpt lat="49.47336" lon="3.71181">
        <ele>173.14</ele>
        <time>2021-10-18T14:28:29.429Z</time>
      </trkpt>
      <trkpt lat="49.47331" lon="3.71184">
        <ele>173.55</ele>
        <time>2021-10-18T14:28:39.000Z</time>
      </trkpt>
      <trkpt lat="49.47331" lon="3.71182">
        <ele>173.31</ele>
        <time>2021-10-18T14:29:18.000Z</time>
      </trkpt>
      <trkpt lat="49.4733" lon="3.71169">
        <ele>175.92</ele>
        <time>2021-10-18T14:29:28.000Z</time>
      </trkpt>
      <trkpt lat="49.47329" lon="3.71155">
        <ele>175.76</ele>
        <time>2021-10-18T14:29:37.390Z</time>
      </trkpt>
      <trkpt lat="49.47325" lon="3.71137">
        <ele>171.17</ele>
        <time>2021-10-18T14:29:46.573Z</time>
      </trkpt>
      <trkpt lat="49.47322" lon="3.71128">
        <ele>172.7</ele>
        <time>2021-10-18T14:29:55.867Z</time>
      </trkpt>
      <trkpt lat="49.47315" lon="3.71115">
        <ele>173.19</ele>
        <time>2021-10-18T14:30:05.000Z</time>
      </trkpt>
      <trkpt lat="49.47311" lon="3.71089">
        <ele>170.37</ele>
        <time>2021-10-18T14:30:14.136Z</time>
      </trkpt>
      <trkpt lat="49.47308" lon="3.71071">
        <ele>170.03</ele>
        <time>2021-10-18T14:30:24.216Z</time>
      </trkpt>
      <trkpt lat="49.47307" lon="3.71054">
        <ele>169.16</ele>
        <time>2021-10-18T14:30:33.770Z</time>
      </trkpt>
      <trkpt lat="49.47304" lon="3.71039">
        <ele>170.31</ele>
        <time>2021-10-18T14:30:43.000Z</time>
      </trkpt>
      <trkpt lat="49.47307" lon="3.71026">
        <ele>171.5</ele>
        <time>2021-10-18T14:30:52.288Z</time>
      </trkpt>
      <trkpt lat="49.47306" lon="3.71017">
        <ele>169.36</ele>
        <time>2021-10-18T14:31:02.201Z</time>
      </trkpt>
      <trkpt lat="49.47304" lon="3.70997">
        <ele>171.28</ele>
        <time>2021-10-18T14:31:11.494Z</time>
      </trkpt>
      <trkpt lat="49.47303" lon="3.70979">
        <ele>170.29</ele>
        <time>2021-10-18T14:31:21.013Z</time>
      </trkpt>
      <trkpt lat="49.47302" lon="3.70964">
        <ele>170.88</ele>
        <time>2021-10-18T14:31:30.308Z</time>
      </trkpt>
      <trkpt lat="49.47299" lon="3.70944">
        <ele>169.47</ele>
        <time>2021-10-18T14:31:40.000Z</time>
      </trkpt>
      <trkpt lat="49.47295" lon="3.70921">
        <ele>170.54</ele>
        <time>2021-10-18T14:31:50.008Z</time>
      </trkpt>
      <trkpt lat="49.47294" lon="3.70903">
        <ele>171.34</ele>
        <time>2021-10-18T14:32:00.000Z</time>
      </trkpt>
      <trkpt lat="49.47291" lon="3.70884">
        <ele>168.96</ele>
        <time>2021-10-18T14:32:09.112Z</time>
      </trkpt>
      <trkpt lat="49.47285" lon="3.70869">
        <ele>171.01</ele>
        <time>2021-10-18T14:32:18.496Z</time>
      </trkpt>
      <trkpt lat="49.47281" lon="3.70855">
        <ele>173.18</ele>
        <time>2021-10-18T14:32:28.000Z</time>
      </trkpt>
      <trkpt lat="49.47278" lon="3.70841">
        <ele>175.51</ele>
        <time>2021-10-18T14:32:37.010Z</time>
      </trkpt>
      <trkpt lat="49.47274" lon="3.70827">
        <ele>173.52</ele>
        <time>2021-10-18T14:32:46.248Z</time>
      </trkpt>
      <trkpt lat="49.4727" lon="3.70811">
        <ele>174.1</ele>
        <time>2021-10-18T14:32:56.000Z</time>
      </trkpt>
      <trkpt lat="49.47265" lon="3.70793">
        <ele>174.92</ele>
        <time>2021-10-18T14:33:06.272Z</time>
      </trkpt>
      <trkpt lat="49.4726" lon="3.70779">
        <ele>176.3</ele>
        <time>2021-10-18T14:33:15.396Z</time>
      </trkpt>
      <trkpt lat="49.47254" lon="3.70764">
        <ele>176.99</ele>
        <time>2021-10-18T14:33:24.751Z</time>
      </trkpt>
      <trkpt lat="49.47247" lon="3.70748">
        <ele>174.77</ele>
        <time>2021-10-18T14:33:34.129Z</time>
      </trkpt>
      <trkpt lat="49.4724" lon="3.70734">
        <ele>174.94</ele>
        <time>2021-10-18T14:33:43.610Z</time>
      </trkpt>
      <trkpt lat="49.47233" lon="3.70722">
        <ele>176.27</ele>
        <time>2021-10-18T14:33:53.000Z</time>
      </trkpt>
      <trkpt lat="49.47227" lon="3.70704">
        <ele>178.01</ele>
        <time>2021-10-18T14:34:02.069Z</time>
      </trkpt>
      <trkpt lat="49.47221" lon="3.70692">
        <ele>174.08</ele>
        <time>2021-10-18T14:34:12.000Z</time>
      </trkpt>
      <trkpt lat="49.47213" lon="3.70681">
        <ele>173.92</ele>
        <time>2021-10-18T14:34:22.128Z</time>
      </trkpt>
      <trkpt lat="49.47202" lon="3.70672">
        <ele>176.25</ele>
        <time>2021-10-18T14:34:31.855Z</time>
      </trkpt>
      <trkpt lat="49.47194" lon="3.70662">
        <ele>177.21</ele>
        <time>2021-10-18T14:34:41.309Z</time>
      </trkpt>
      <trkpt lat="49.47185" lon="3.7065">
        <ele>174.74</ele>
        <time>2021-10-18T14:34:50.813Z</time>
      </trkpt>
      <trkpt lat="49.47179" lon="3.7064">
        <ele>174.56</ele>
        <time>2021-10-18T14:35:00.152Z</time>
      </trkpt>
      <trkpt lat="49.4717" lon="3.70634">
        <ele>173.35</ele>
        <time>2021-10-18T14:35:09.450Z</time>
      </trkpt>
      <trkpt lat="49.4716" lon="3.70627">
        <ele>172.87</ele>
        <time>2021-10-18T14:35:19.000Z</time>
      </trkpt>
      <trkpt lat="49.47151" lon="3.70621">
        <ele>174.3</ele>
        <time>2021-10-18T14:35:28.553Z</time>
      </trkpt>
      <trkpt lat="49.47142" lon="3.70614">
        <ele>173.56</ele>
        <time>2021-10-18T14:35:38.277Z</time>
      </trkpt>
      <trkpt lat="49.47134" lon="3.70609">
        <ele>174.69</ele>
        <time>2021-10-18T14:35:47.435Z</time>
      </trkpt>
      <trkpt lat="49.47128" lon="3.70608">
        <ele>175.02</ele>
        <time>2021-10-18T14:35:56.914Z</time>
      </trkpt>
      <trkpt lat="49.47122" lon="3.70602">
        <ele>172.12</ele>
        <time>2021-10-18T14:36:06.235Z</time>
      </trkpt>
      <trkpt lat="49.47115" lon="3.70596">
        <ele>168.69</ele>
        <time>2021-10-18T14:36:15.627Z</time>
      </trkpt>
      <trkpt lat="49.47108" lon="3.70589">
        <ele>171.28</ele>
        <time>2021-10-18T14:36:25.289Z</time>
      </trkpt>
      <trkpt lat="49.47099" lon="3.7058">
        <ele>166.34</ele>
        <time>2021-10-18T14:36:34.796Z</time>
      </trkpt>
      <trkpt lat="49.47092" lon="3.70573">
        <ele>168.71</ele>
        <time>2021-10-18T14:36:44.000Z</time>
      </trkpt>
      <trkpt lat="49.47085" lon="3.7057">
        <ele>169.46</ele>
        <time>2021-10-18T14:36:54.000Z</time>
      </trkpt>
      <trkpt lat="49.47079" lon="3.70569">
        <ele>171.63</ele>
        <time>2021-10-18T14:37:03.074Z</time>
      </trkpt>
      <trkpt lat="49.47071" lon="3.70563">
        <ele>166.21</ele>
        <time>2021-10-18T14:37:12.528Z</time>
      </trkpt>
      <trkpt lat="49.47063" lon="3.70557">
        <ele>165.74</ele>
        <time>2021-10-18T14:37:22.410Z</time>
      </trkpt>
      <trkpt lat="49.47056" lon="3.70554">
        <ele>167.13</ele>
        <time>2021-10-18T14:37:32.332Z</time>
      </trkpt>
      <trkpt lat="49.47048" lon="3.70554">
        <ele>163.03</ele>
        <time>2021-10-18T14:37:41.933Z</time>
      </trkpt>
      <trkpt lat="49.4704" lon="3.70549">
        <ele>162.75</ele>
        <time>2021-10-18T14:37:51.000Z</time>
      </trkpt>
      <trkpt lat="49.47031" lon="3.70544">
        <ele>161.08</ele>
        <time>2021-10-18T14:38:01.000Z</time>
      </trkpt>
      <trkpt lat="49.47021" lon="3.70541">
        <ele>103.27</ele>
        <time>2021-10-18T14:38:11.000Z</time>
      </trkpt>
      <trkpt lat="49.47012" lon="3.70538">
        <ele>103.17</ele>
        <time>2021-10-18T14:38:21.000Z</time>
      </trkpt>
      <trkpt lat="49.47002" lon="3.70536">
        <ele>103.2</ele>
        <time>2021-10-18T14:38:30.849Z</time>
      </trkpt>
      <trkpt lat="49.46993" lon="3.70528">
        <ele>103.21</ele>
        <time>2021-10-18T14:38:39.935Z</time>
      </trkpt>
      <trkpt lat="49.46984" lon="3.7052">
        <ele>103.2</ele>
        <time>2021-10-18T14:38:49.268Z</time>
      </trkpt>
      <trkpt lat="49.46976" lon="3.70512">
        <ele>103.12</ele>
        <time>2021-10-18T14:38:58.312Z</time>
      </trkpt>
      <trkpt lat="49.46969" lon="3.7051">
        <ele>103.06</ele>
        <time>2021-10-18T14:39:07.641Z</time>
      </trkpt>
      <trkpt lat="49.46961" lon="3.70505">
        <ele>103.06</ele>
        <time>2021-10-18T14:39:17.330Z</time>
      </trkpt>
      <trkpt lat="49.46955" lon="3.70497">
        <ele>103.09</ele>
        <time>2021-10-18T14:39:26.871Z</time>
      </trkpt>
      <trkpt lat="49.4695" lon="3.70489">
        <ele>103.14</ele>
        <time>2021-10-18T14:39:36.452Z</time>
      </trkpt>
      <trkpt lat="49.46945" lon="3.70481">
        <ele>103.25</ele>
        <time>2021-10-18T14:39:46.000Z</time>
      </trkpt>
      <trkpt lat="49.4694" lon="3.70471">
        <ele>103.11</ele>
        <time>2021-10-18T14:39:55.149Z</time>
      </trkpt>
      <trkpt lat="49.46937" lon="3.70463">
        <ele>103.61</ele>
        <time>2021-10-18T14:40:04.276Z</time>
      </trkpt>
      <trkpt lat="49.46933" lon="3.70451">
        <ele>103.65</ele>
        <time>2021-10-18T14:40:13.415Z</time>
      </trkpt>
      <trkpt lat="49.46927" lon="3.70439">
        <ele>103.64</ele>
        <time>2021-10-18T14:40:22.715Z</time>
      </trkpt>
      <trkpt lat="49.46921" lon="3.70425">
        <ele>103.48</ele>
        <time>2021-10-18T14:40:32.128Z</time>
      </trkpt>
      <trkpt lat="49.46916" lon="3.70413">
        <ele>103.56</ele>
        <time>2021-10-18T14:40:41.373Z</time>
      </trkpt>
      <trkpt lat="49.4691" lon="3.70403">
        <ele>103.53</ele>
        <time>2021-10-18T14:40:50.661Z</time>
      </trkpt>
      <trkpt lat="49.46901" lon="3.70396">
        <ele>137.46</ele>
        <time>2021-10-18T14:41:00.093Z</time>
      </trkpt>
      <trkpt lat="49.46894" lon="3.70385">
        <ele>134.2</ele>
        <time>2021-10-18T14:41:10.211Z</time>
      </trkpt>
      <trkpt lat="49.46886" lon="3.70375">
        <ele>136.97</ele>
        <time>2021-10-18T14:41:19.549Z</time>
      </trkpt>
      <trkpt lat="49.46878" lon="3.70368">
        <ele>135.45</ele>
        <time>2021-10-18T14:41:29.415Z</time>
      </trkpt>
      <trkpt lat="49.4687" lon="3.70361">
        <ele>103.36</ele>
        <time>2021-10-18T14:41:39.214Z</time>
      </trkpt>
      <trkpt lat="49.46862" lon="3.70352">
        <ele>103.23</ele>
        <time>2021-10-18T14:41:49.000Z</time>
      </trkpt>
      <trkpt lat="49.46851" lon="3.70346">
        <ele>103.26</ele>
        <time>2021-10-18T14:41:58.050Z</time>
      </trkpt>
      <trkpt lat="49.46841" lon="3.70339">
        <ele>104.12</ele>
        <time>2021-10-18T14:42:07.493Z</time>
      </trkpt>
      <trkpt lat="49.46831" lon="3.70334">
        <ele>104.35</ele>
        <time>2021-10-18T14:42:16.997Z</time>
      </trkpt>
      <trkpt lat="49.46822" lon="3.70331">
        <ele>104.17</ele>
        <time>2021-10-18T14:42:26.353Z</time>
      </trkpt>
      <trkpt lat="49.4681" lon="3.70329">
        <ele>104.08</ele>
        <time>2021-10-18T14:42:36.132Z</time>
      </trkpt>
      <trkpt lat="49.46798" lon="3.70326">
        <ele>103.68</ele>
        <time>2021-10-18T14:42:46.200Z</time>
      </trkpt>
      <trkpt lat="49.46789" lon="3.70324">
        <ele>103.72</ele>
        <time>2021-10-18T14:42:55.528Z</time>
      </trkpt>
      <trkpt lat="49.46779" lon="3.70322">
        <ele>104.12</ele>
        <time>2021-10-18T14:43:05.328Z</time>
      </trkpt>
      <trkpt lat="49.46769" lon="3.70321">
        <ele>103.85</ele>
        <time>2021-10-18T14:43:14.509Z</time>
      </trkpt>
      <trkpt lat="49.4676" lon="3.70321">
        <ele>103.59</ele>
        <time>2021-10-18T14:43:24.455Z</time>
      </trkpt>
      <trkpt lat="49.46749" lon="3.70321">
        <ele>104.07</ele>
        <time>2021-10-18T14:43:34.134Z</time>
      </trkpt>
      <trkpt lat="49.46738" lon="3.70322">
        <ele>103.54</ele>
        <time>2021-10-18T14:43:44.193Z</time>
      </trkpt>
      <trkpt lat="49.4673" lon="3.70326">
        <ele>104.12</ele>
        <time>2021-10-18T14:43:53.489Z</time>
      </trkpt>
      <trkpt lat="49.46719" lon="3.70324">
        <ele>103.94</ele>
        <time>2021-10-18T14:44:03.508Z</time>
      </trkpt>
      <trkpt lat="49.46706" lon="3.7032">
        <ele>103.23</ele>
        <time>2021-10-18T14:44:13.492Z</time>
      </trkpt>
      <trkpt lat="49.46696" lon="3.70321">
        <ele>103.24</ele>
        <time>2021-10-18T14:44:22.517Z</time>
      </trkpt>
      <trkpt lat="49.46688" lon="3.70324">
        <ele>103.11</ele>
        <time>2021-10-18T14:44:32.269Z</time>
      </trkpt>
      <trkpt lat="49.46679" lon="3.70322">
        <ele>103.2</ele>
        <time>2021-10-18T14:44:41.533Z</time>
      </trkpt>
      <trkpt lat="49.46674" lon="3.70318">
        <ele>103.08</ele>
        <time>2021-10-18T14:44:51.000Z</time>
      </trkpt>
      <trkpt lat="49.46675" lon="3.70323">
        <ele>103.07</ele>
        <time>2021-10-18T14:45:01.000Z</time>
      </trkpt>
      <trkpt lat="49.46677" lon="3.70327">
        <ele>103.11</ele>
        <time>2021-10-18T14:45:11.000Z</time>
      </trkpt>
      <trkpt lat="49.46676" lon="3.70328">
        <ele>103.19</ele>
        <time>2021-10-18T14:45:22.000Z</time>
      </trkpt>
      <trkpt lat="49.46673" lon="3.70329">
        <ele>103.08</ele>
        <time>2021-10-18T14:45:32.000Z</time>
      </trkpt>
      <trkpt lat="49.46672" lon="3.7033">
        <ele>102.99</ele>
        <time>2021-10-18T14:47:57.000Z</time>
      </trkpt>
      <trkpt lat="49.46664" lon="3.70324">
        <ele>102.96</ele>
        <time>2021-10-18T14:48:07.000Z</time>
      </trkpt>
      <trkpt lat="49.4666" lon="3.70315">
        <ele>102.88</ele>
        <time>2021-10-18T14:48:17.000Z</time>
      </trkpt>
      <trkpt lat="49.46658" lon="3.70298">
        <ele>102.97</ele>
        <time>2021-10-18T14:48:27.412Z</time>
      </trkpt>
      <trkpt lat="49.46658" lon="3.70281">
        <ele>103.04</ele>
        <time>2021-10-18T14:48:37.335Z</time>
      </trkpt>
      <trkpt lat="49.4666" lon="3.70267">
        <ele>102.98</ele>
        <time>2021-10-18T14:48:47.396Z</time>
      </trkpt>
      <trkpt lat="49.46665" lon="3.70252">
        <ele>102.98</ele>
        <time>2021-10-18T14:48:57.412Z</time>
      </trkpt>
      <trkpt lat="49.46669" lon="3.70235">
        <ele>102.89</ele>
        <time>2021-10-18T14:49:07.314Z</time>
      </trkpt>
      <trkpt lat="49.46671" lon="3.70219">
        <ele>103.23</ele>
        <time>2021-10-18T14:49:16.380Z</time>
      </trkpt>
      <trkpt lat="49.4667" lon="3.70202">
        <ele>103.22</ele>
        <time>2021-10-18T14:49:26.116Z</time>
      </trkpt>
      <trkpt lat="49.46672" lon="3.70182">
        <ele>102.79</ele>
        <time>2021-10-18T14:49:35.792Z</time>
      </trkpt>
      <trkpt lat="49.46672" lon="3.7017">
        <ele>102.79</ele>
        <time>2021-10-18T14:49:44.915Z</time>
      </trkpt>
      <trkpt lat="49.46671" lon="3.70159">
        <ele>102.6</ele>
        <time>2021-10-18T14:49:53.956Z</time>
      </trkpt>
      <trkpt lat="49.4667" lon="3.70143">
        <ele>102.67</ele>
        <time>2021-10-18T14:50:03.355Z</time>
      </trkpt>
      <trkpt lat="49.46669" lon="3.70126">
        <ele>102.2</ele>
        <time>2021-10-18T14:50:12.974Z</time>
      </trkpt>
      <trkpt lat="49.46671" lon="3.7011">
        <ele>102.85</ele>
        <time>2021-10-18T14:50:22.032Z</time>
      </trkpt>
      <trkpt lat="49.46676" lon="3.70093">
        <ele>102.75</ele>
        <time>2021-10-18T14:50:32.201Z</time>
      </trkpt>
      <trkpt lat="49.46677" lon="3.70076">
        <ele>103.02</ele>
        <time>2021-10-18T14:50:41.216Z</time>
      </trkpt>
      <trkpt lat="49.46677" lon="3.7006">
        <ele>103.1</ele>
        <time>2021-10-18T14:50:50.332Z</time>
      </trkpt>
      <trkpt lat="49.4668" lon="3.70045">
        <ele>103.33</ele>
        <time>2021-10-18T14:50:59.436Z</time>
      </trkpt>
      <trkpt lat="49.46685" lon="3.70031">
        <ele>103.21</ele>
        <time>2021-10-18T14:51:09.000Z</time>
      </trkpt>
      <trkpt lat="49.46683" lon="3.70015">
        <ele>103.29</ele>
        <time>2021-10-18T14:51:18.310Z</time>
      </trkpt>
      <trkpt lat="49.46685" lon="3.69997">
        <ele>103.63</ele>
        <time>2021-10-18T14:51:27.394Z</time>
      </trkpt>
      <trkpt lat="49.46685" lon="3.69979">
        <ele>105.28</ele>
        <time>2021-10-18T14:51:37.328Z</time>
      </trkpt>
      <trkpt lat="49.46677" lon="3.69964">
        <ele>105.98</ele>
        <time>2021-10-18T14:51:47.206Z</time>
      </trkpt>
      <trkpt lat="49.46671" lon="3.69951">
        <ele>106.08</ele>
        <time>2021-10-18T14:51:56.396Z</time>
      </trkpt>
      <trkpt lat="49.46676" lon="3.69955">
        <ele>106.28</ele>
        <time>2021-10-18T14:52:06.000Z</time>
      </trkpt>
      <trkpt lat="49.46673" lon="3.69948">
        <ele>106.44</ele>
        <time>2021-10-18T14:52:16.293Z</time>
      </trkpt>
      <trkpt lat="49.46664" lon="3.69932">
        <ele>108.15</ele>
        <time>2021-10-18T14:52:26.350Z</time>
      </trkpt>
      <trkpt lat="49.46654" lon="3.69916">
        <ele>109.68</ele>
        <time>2021-10-18T14:52:36.394Z</time>
      </trkpt>
      <trkpt lat="49.46644" lon="3.69904">
        <ele>110.67</ele>
        <time>2021-10-18T14:52:46.470Z</time>
      </trkpt>
      <trkpt lat="49.46635" lon="3.6989">
        <ele>110.84</ele>
        <time>2021-10-18T14:52:56.011Z</time>
      </trkpt>
      <trkpt lat="49.4663" lon="3.69878">
        <ele>110.9</ele>
        <time>2021-10-18T14:53:05.356Z</time>
      </trkpt>
      <trkpt lat="49.46626" lon="3.69864">
        <ele>110.83</ele>
        <time>2021-10-18T14:53:14.809Z</time>
      </trkpt>
      <trkpt lat="49.46625" lon="3.6985">
        <ele>110.95</ele>
        <time>2021-10-18T14:53:23.932Z</time>
      </trkpt>
      <trkpt lat="49.46623" lon="3.69833">
        <ele>110.96</ele>
        <time>2021-10-18T14:53:33.234Z</time>
      </trkpt>
      <trkpt lat="49.46623" lon="3.69816">
        <ele>111.19</ele>
        <time>2021-10-18T14:53:42.831Z</time>
      </trkpt>
      <trkpt lat="49.46623" lon="3.698">
        <ele>111.27</ele>
        <time>2021-10-18T14:53:52.357Z</time>
      </trkpt>
      <trkpt lat="49.46619" lon="3.69785">
        <ele>111.39</ele>
        <time>2021-10-18T14:54:01.390Z</time>
      </trkpt>
      <trkpt lat="49.46616" lon="3.69771">
        <ele>111.53</ele>
        <time>2021-10-18T14:54:10.991Z</time>
      </trkpt>
      <trkpt lat="49.46614" lon="3.69756">
        <ele>111.33</ele>
        <time>2021-10-18T14:54:21.000Z</time>
      </trkpt>
      <trkpt lat="49.46619" lon="3.69741">
        <ele>111.45</ele>
        <time>2021-10-18T14:54:30.415Z</time>
      </trkpt>
      <trkpt lat="49.46622" lon="3.6973">
        <ele>111.38</ele>
        <time>2021-10-18T14:54:39.475Z</time>
      </trkpt>
      <trkpt lat="49.46624" lon="3.69722">
        <ele>111.33</ele>
        <time>2021-10-18T14:54:49.308Z</time>
      </trkpt>
      <trkpt lat="49.46626" lon="3.69705">
        <ele>110.96</ele>
        <time>2021-10-18T14:54:59.294Z</time>
      </trkpt>
      <trkpt lat="49.46629" lon="3.69691">
        <ele>109.92</ele>
        <time>2021-10-18T14:55:09.396Z</time>
      </trkpt>
      <trkpt lat="49.46627" lon="3.69673">
        <ele>105.12</ele>
        <time>2021-10-18T14:55:19.184Z</time>
      </trkpt>
      <trkpt lat="49.46618" lon="3.6966">
        <ele>103.79</ele>
        <time>2021-10-18T14:55:29.000Z</time>
      </trkpt>
      <trkpt lat="49.46606" lon="3.69665">
        <ele>103.27</ele>
        <time>2021-10-18T14:55:38.275Z</time>
      </trkpt>
      <trkpt lat="49.46595" lon="3.69668">
        <ele>103.1</ele>
        <time>2021-10-18T14:55:47.389Z</time>
      </trkpt>
      <trkpt lat="49.46585" lon="3.69671">
        <ele>103.11</ele>
        <time>2021-10-18T14:55:57.372Z</time>
      </trkpt>
      <trkpt lat="49.46575" lon="3.69677">
        <ele>103.06</ele>
        <time>2021-10-18T14:56:07.217Z</time>
      </trkpt>
      <trkpt lat="49.46566" lon="3.69681">
        <ele>102.88</ele>
        <time>2021-10-18T14:56:16.357Z</time>
      </trkpt>
      <trkpt lat="49.46558" lon="3.69688">
        <ele>102.87</ele>
        <time>2021-10-18T14:56:26.000Z</time>
      </trkpt>
      <trkpt lat="49.46557" lon="3.69686">
        <ele>102.81</ele>
        <time>2021-10-18T14:56:35.128Z</time>
      </trkpt>
      <trkpt lat="49.46546" lon="3.69688">
        <ele>112.25</ele>
        <time>2021-10-18T14:56:44.250Z</time>
      </trkpt>
      <trkpt lat="49.46542" lon="3.69689">
        <ele>112.02</ele>
        <time>2021-10-18T14:56:54.336Z</time>
      </trkpt>
      <trkpt lat="49.46539" lon="3.69682">
        <ele>110.39</ele>
        <time>2021-10-18T14:57:04.291Z</time>
      </trkpt>
      <trkpt lat="49.46529" lon="3.69683">
        <ele>110.35</ele>
        <time>2021-10-18T14:57:13.455Z</time>
      </trkpt>
      <trkpt lat="49.4652" lon="3.69683">
        <ele>110.46</ele>
        <time>2021-10-18T14:57:23.000Z</time>
      </trkpt>
      <trkpt lat="49.4651" lon="3.69683">
        <ele>108.89</ele>
        <time>2021-10-18T14:57:32.016Z</time>
      </trkpt>
      <trkpt lat="49.46506" lon="3.69675">
        <ele>107.53</ele>
        <time>2021-10-18T14:57:42.000Z</time>
      </trkpt>
      <trkpt lat="49.46499" lon="3.69675">
        <ele>107.44</ele>
        <time>2021-10-18T14:57:52.000Z</time>
      </trkpt>
      <trkpt lat="49.46497" lon="3.69673">
        <ele>105.03</ele>
        <time>2021-10-18T14:58:02.000Z</time>
      </trkpt>
      <trkpt lat="49.46497" lon="3.69666">
        <ele>106.64</ele>
        <time>2021-10-18T14:58:37.000Z</time>
      </trkpt>
      <trkpt lat="49.4649" lon="3.69665">
        <ele>96.13</ele>
        <time>2021-10-18T14:58:46.270Z</time>
      </trkpt>
      <trkpt lat="49.46475" lon="3.69662">
        <ele>97.02</ele>
        <time>2021-10-18T14:58:55.913Z</time>
      </trkpt>
      <trkpt lat="49.46467" lon="3.69665">
        <ele>96.9</ele>
        <time>2021-10-18T14:59:05.277Z</time>
      </trkpt>
      <trkpt lat="49.46463" lon="3.69678">
        <ele>96.87</ele>
        <time>2021-10-18T14:59:14.734Z</time>
      </trkpt>
      <trkpt lat="49.46453" lon="3.69689">
        <ele>96.91</ele>
        <time>2021-10-18T14:59:24.000Z</time>
      </trkpt>
      <trkpt lat="49.46442" lon="3.69697">
        <ele>96.93</ele>
        <time>2021-10-18T14:59:33.808Z</time>
      </trkpt>
      <trkpt lat="49.46431" lon="3.69705">
        <ele>97.11</ele>
        <time>2021-10-18T14:59:43.313Z</time>
      </trkpt>
      <trkpt lat="49.4642" lon="3.69709">
        <ele>97.15</ele>
        <time>2021-10-18T14:59:52.336Z</time>
      </trkpt>
      <trkpt lat="49.46406" lon="3.69709">
        <ele>104.75</ele>
        <time>2021-10-18T15:00:01.791Z</time>
      </trkpt>
      <trkpt lat="49.46393" lon="3.69712">
        <ele>102.26</ele>
        <time>2021-10-18T15:00:11.115Z</time>
      </trkpt>
      <trkpt lat="49.46383" lon="3.69719">
        <ele>102.91</ele>
        <time>2021-10-18T15:00:20.496Z</time>
      </trkpt>
      <trkpt lat="49.46375" lon="3.6973">
        <ele>100.65</ele>
        <time>2021-10-18T15:00:30.000Z</time>
      </trkpt>
      <trkpt lat="49.46368" lon="3.69727">
        <ele>87.5</ele>
        <time>2021-10-18T15:00:39.050Z</time>
      </trkpt>
      <trkpt lat="49.46363" lon="3.69714">
        <ele>86.63</ele>
        <time>2021-10-18T15:00:48.334Z</time>
      </trkpt>
      <trkpt lat="49.46362" lon="3.69715">
        <ele>86.67</ele>
        <time>2021-10-18T15:00:53.000Z</time>
      </trkpt>
    </trkseg>
  </trk>
</gpx>